Observation data for Welch on 08/14/2019      Previous  Date  Next       Current Mesonet Observations  Soil Data  Daily Summary Page  Observations in Plain Language
KWE2 140500Z 07006KT 28/19 A3011 RMK A01 T02760187  RH  058%=      5-min Rain = 0
KWE2 140501Z 07007KT 28/19 A3011 RMK A01 T02770187  RH  058%=      5-min Rain = 0
KWE2 140502Z 07007KT 28/19 A3011 RMK A01 T02770187  RH  058%=      5-min Rain = 0
KWE2 140503Z 07006KT 28/19 A3011 RMK A01 T02770188  RH  058%=      5-min Rain = 0
KWE2 140504Z 07006KT 28/19 A3011 RMK A01 T02770187  RH  058%=      5-min Rain = 0
KWE2 140505Z 07005KT 28/19 A3011 RMK A01 T02770188  RH  058%=      5-min Rain = 0
KWE2 140506Z 08006KT 28/19 A3011 RMK A01 T02770188  RH  058%=      5-min Rain = 0
KWE2 140507Z 07007KT 28/19 A3011 RMK A01 T02770187  RH  058%=      5-min Rain = 0
KWE2 140508Z 07006KT 28/19 A3011 RMK A01 T02770187  RH  058%=      5-min Rain = 0
KWE2 140509Z 08006KT 28/19 A3011 RMK A01 T02770188  RH  058%=      5-min Rain = 0
KWE2 140510Z 08006KT 28/19 A3011 RMK A01 T02770187  RH  058%=      5-min Rain = 0
KWE2 140527Z 07006KT 28/19 A3012 RMK A01 T02780188  RH  058%=      5-min Rain = 0
KWE2 140528Z 06006KT 28/19 A3012 RMK A01 T02770188  RH  058%=      5-min Rain = 0
KWE2 140529Z 07006KT 28/19 A3012 RMK A01 T02760188  RH  059%=      5-min Rain = 0
KWE2 140530Z 05005KT 28/19 A3012 RMK A01 T02750189  RH  059%=      5-min Rain = 0
KWE2 140531Z 06005KT 27/19 A3012 RMK A01 T02740189  RH  060%=      5-min Rain = 0
KWE2 140532Z 06006KT 27/19 A3012 RMK A01 T02730189  RH  060%=      5-min Rain = 0
KWE2 140533Z 06005KT 27/19 A3012 RMK A01 T02720189  RH  060%=      5-min Rain = 0
KWE2 140534Z 06006KT 27/19 A3012 RMK A01 T02720189  RH  061%=      5-min Rain = 0
KWE2 140535Z 05006KT 27/19 A3012 RMK A01 T02710189  RH  061%=      5-min Rain = 0
KWE2 140536Z 06006KT 27/19 A3012 RMK A01 T02710190  RH  061%=      5-min Rain = 0
KWE2 140537Z 05006KT 27/19 A3012 RMK A01 T02710190  RH  061%=      5-min Rain = 0
KWE2 140538Z 05005KT 27/19 A3012 RMK A01 T02710190  RH  061%=      5-min Rain = 0
KWE2 140539Z 06005KT 27/19 A3012 RMK A01 T02710190  RH  061%=      5-min Rain = 0
KWE2 140540Z 06005KT 27/19 A3012 RMK A01 T02700190  RH  061%=      5-min Rain = 0
KWE2 140541Z 05004KT 27/19 A3012 RMK A01 T02700190  RH  061%=      5-min Rain = 0
KWE2 140542Z 05005KT 27/19 A3012 RMK A01 T02700190  RH  061%=      5-min Rain = 0
KWE2 140543Z 05005KT 27/19 A3012 RMK A01 T02700189  RH  061%=      5-min Rain = 0
KWE2 140544Z 05005KT 27/19 A3012 RMK A01 T02690189  RH  062%=      5-min Rain = 0
KWE2 140545Z 05005KT 27/19 A3012 RMK A01 T02690189  RH  062%=      5-min Rain = 0
KWE2 140546Z 05004KT 27/19 A3012 RMK A01 T02680189  RH  062%=      5-min Rain = 0
KWE2 140547Z 05005KT 27/19 A3012 RMK A01 T02670189  RH  062%=      5-min Rain = 0
KWE2 140548Z 06004KT 27/19 A3012 RMK A01 T02660189  RH  063%=      5-min Rain = 0
KWE2 140549Z 05006KT 27/19 A3012 RMK A01 T02660189  RH  063%=      5-min Rain = 0
KWE2 140550Z 05006KT 27/19 A3012 RMK A01 T02650189  RH  063%=      5-min Rain = 0
KWE2 140551Z 05005KT 27/19 A3012 RMK A01 T02650189  RH  063%=      5-min Rain = 0
KWE2 140552Z 05005KT 27/19 A3012 RMK A01 T02660189  RH  063%=      5-min Rain = 0
KWE2 140553Z 05006KT 27/19 A3012 RMK A01 T02660189  RH  063%=      5-min Rain = 0
KWE2 140554Z 06006KT 27/19 A3012 RMK A01 T02660189  RH  063%=      5-min Rain = 0
KWE2 140555Z 07007KT 27/19 A3012 RMK A01 T02660189  RH  063%=      5-min Rain = 0
KWE2 140556Z 07006KT 27/19 A3012 RMK A01 T02660189  RH  062%=      5-min Rain = 0
KWE2 140557Z 07007KT 27/19 A3012 RMK A01 T02670189  RH  062%=      5-min Rain = 0
KWE2 140558Z 07007KT 27/19 A3012 RMK A01 T02680188  RH  062%=      5-min Rain = 0
KWE2 140559Z 08006KT 27/19 A3012 RMK A01 T02700189  RH  061%=      5-min Rain = 0
KWE2 140600Z 08007KT 27/19 A3012 RMK A01 T02700189  RH  061%=      5-min Rain = 0
KWE2 140601Z 08007KT 27/19 A3012 RMK A01 T02700189  RH  061%=      5-min Rain = 0
KWE2 140602Z 08007KT 27/19 A3012 RMK A01 T02700189  RH  061%=      5-min Rain = 0
KWE2 140603Z 08007KT 27/19 A3012 RMK A01 T02700189  RH  061%=      5-min Rain = 0
KWE2 140604Z 08007KT 27/19 A3012 RMK A01 T02710189  RH  061%=      5-min Rain = 0
KWE2 140605Z 08006KT 27/19 A3012 RMK A01 T02710189  RH  061%=      5-min Rain = 0
KWE2 140606Z 08004KT 27/19 A3012 RMK A01 T02710189  RH  061%=      5-min Rain = 0
KWE2 140607Z 08006KT 27/19 A3012 RMK A01 T02710189  RH  061%=      5-min Rain = 0
KWE2 140608Z 08006KT 27/19 A3012 RMK A01 T02710189  RH  061%=      5-min Rain = 0
KWE2 140609Z 07005KT 27/19 A3012 RMK A01 T02710188  RH  060%=      5-min Rain = 0
KWE2 140610Z 08006KT 27/19 A3012 RMK A01 T02710188  RH  060%=      5-min Rain = 0
KWE2 140611Z 08006KT 27/19 A3012 RMK A01 T02710188  RH  061%=      5-min Rain = 0
KWE2 140612Z 08005KT 27/19 A3013 RMK A01 T02710189  RH  061%=      5-min Rain = 0
KWE2 140613Z 08005KT 27/19 A3013 RMK A01 T02710188  RH  061%=      5-min Rain = 0
KWE2 140614Z 08006KT 27/19 A3012 RMK A01 T02700188  RH  061%=      5-min Rain = 0
KWE2 140615Z 08006KT 27/19 A3012 RMK A01 T02700189  RH  061%=      5-min Rain = 0
KWE2 140616Z 07005KT 27/19 A3012 RMK A01 T02700189  RH  061%=      5-min Rain = 0
KWE2 140617Z 08005KT 27/19 A3012 RMK A01 T02700189  RH  061%=      5-min Rain = 0
KWE2 140618Z 07006KT 27/19 A3012 RMK A01 T02690188  RH  061%=      5-min Rain = 0
KWE2 140619Z 07005KT 27/19 A3012 RMK A01 T02690189  RH  061%=      5-min Rain = 0
KWE2 140620Z 07005KT 27/19 A3012 RMK A01 T02690189  RH  061%=      5-min Rain = 0
KWE2 140621Z 08005KT 27/19 A3012 RMK A01 T02680189  RH  062%=      5-min Rain = 0
KWE2 140622Z 07005KT 27/19 A3012 RMK A01 T02680189  RH  062%=      5-min Rain = 0
KWE2 140623Z 07005KT 27/19 A3012 RMK A01 T02680189  RH  062%=      5-min Rain = 0
KWE2 140624Z 07006KT 27/19 A3012 RMK A01 T02670189  RH  062%=      5-min Rain = 0
KWE2 140625Z 08005KT 27/19 A3012 RMK A01 T02680189  RH  062%=      5-min Rain = 0
KWE2 140626Z 09004KT 27/19 A3012 RMK A01 T02670189  RH  062%=      5-min Rain = 0
KWE2 140627Z 09005KT 27/19 A3012 RMK A01 T02670189  RH  062%=      5-min Rain = 0
KWE2 140628Z 08006KT 27/19 A3012 RMK A01 T02660189  RH  062%=      5-min Rain = 0
KWE2 140629Z 08004KT 27/19 A3012 RMK A01 T02670189  RH  062%=      5-min Rain = 0
KWE2 140630Z 09005KT 27/19 A3012 RMK A01 T02670189  RH  062%=      5-min Rain = 0
KWE2 140631Z 08005KT 27/19 A3012 RMK A01 T02670189  RH  062%=      5-min Rain = 0
KWE2 140632Z 08005KT 27/19 A3012 RMK A01 T02660189  RH  062%=      5-min Rain = 0
KWE2 140633Z 08005KT 27/19 A3012 RMK A01 T02660189  RH  063%=      5-min Rain = 0
KWE2 140634Z 08005KT 27/19 A3012 RMK A01 T02660189  RH  063%=      5-min Rain = 0
KWE2 140635Z 08005KT 27/19 A3012 RMK A01 T02660189  RH  063%=      5-min Rain = 0
KWE2 140636Z 08004KT 27/19 A3012 RMK A01 T02650189  RH  063%=      5-min Rain = 0
KWE2 140637Z 08005KT 27/19 A3012 RMK A01 T02650188  RH  063%=      5-min Rain = 0
KWE2 140638Z 08005KT 27/19 A3012 RMK A01 T02650189  RH  063%=      5-min Rain = 0
KWE2 140639Z 08006KT 27/19 A3012 RMK A01 T02650189  RH  063%=      5-min Rain = 0
KWE2 140640Z 07006KT 27/19 A3012 RMK A01 T02650189  RH  063%=      5-min Rain = 0
KWE2 140641Z 07006KT 27/19 A3012 RMK A01 T02650189  RH  063%=      5-min Rain = 0
KWE2 140642Z 08006KT 27/19 A3012 RMK A01 T02650189  RH  063%=      5-min Rain = 0
KWE2 140643Z 09005KT 26/19 A3012 RMK A01 T02640188  RH  063%=      5-min Rain = 0
KWE2 140644Z 08004KT 26/19 A3012 RMK A01 T02640189  RH  063%=      5-min Rain = 0
KWE2 140645Z 09006KT 26/19 A3012 RMK A01 T02630189  RH  063%=      5-min Rain = 0
KWE2 140646Z 09006KT 26/19 A3012 RMK A01 T02630189  RH  064%=      5-min Rain = 0
KWE2 140647Z 09006KT 26/19 A3012 RMK A01 T02630189  RH  064%=      5-min Rain = 0
KWE2 140648Z 10005KT 26/19 A3012 RMK A01 T02630189  RH  064%=      5-min Rain = 0
KWE2 140649Z 10005KT 26/19 A3012 RMK A01 T02630189  RH  064%=      5-min Rain = 0
KWE2 140650Z 10005KT 26/19 A3012 RMK A01 T02610189  RH  064%=      5-min Rain = 0
KWE2 140651Z 10004KT 26/19 A3012 RMK A01 T02600189  RH  065%=      5-min Rain = 0
KWE2 140652Z 10004KT 26/19 A3012 RMK A01 T02580189  RH  065%=      5-min Rain = 0
KWE2 140653Z 10004KT 26/19 A3012 RMK A01 T02570189  RH  066%=      5-min Rain = 0
KWE2 140654Z 10004KT 26/19 A3011 RMK A01 T02550189  RH  067%=      5-min Rain = 0
KWE2 140655Z 10004KT 25/19 A3012 RMK A01 T02540189  RH  067%=      5-min Rain = 0
KWE2 140656Z 10004KT 25/19 A3012 RMK A01 T02530189  RH  068%=      5-min Rain = 0
KWE2 140657Z 10004KT 25/19 A3012 RMK A01 T02510189  RH  068%=      5-min Rain = 0
KWE2 140658Z 10004KT 25/19 A3012 RMK A01 T02510189  RH  069%=      5-min Rain = 0
KWE2 140659Z 10004KT 25/19 A3012 RMK A01 T02500188  RH  069%=      5-min Rain = 0
KWE2 140700Z 11003KT 25/19 A3012 RMK A01 T02500188  RH  068%=      5-min Rain = 0
KWE2 140701Z 10005KT 25/19 A3012 RMK A01 T02500188  RH  068%=      5-min Rain = 0
KWE2 140702Z 10004KT 25/19 A3012 RMK A01 T02500188  RH  068%=      5-min Rain = 0
KWE2 140703Z 10004KT 25/19 A3012 RMK A01 T02500188  RH  068%=      5-min Rain = 0
KWE2 140704Z 10004KT 25/19 A3012 RMK A01 T02500188  RH  068%=      5-min Rain = 0
KWE2 140705Z 09004KT 25/19 A3012 RMK A01 T02500189  RH  069%=      5-min Rain = 0
KWE2 140706Z 09005KT 25/19 A3012 RMK A01 T02500189  RH  069%=      5-min Rain = 0
KWE2 140707Z 09004KT 25/19 A3012 RMK A01 T02500189  RH  069%=      5-min Rain = 0
KWE2 140708Z 08004KT 25/19 A3012 RMK A01 T02510189  RH  068%=      5-min Rain = 0
KWE2 140709Z 07005KT 25/19 A3012 RMK A01 T02520189  RH  068%=      5-min Rain = 0
KWE2 140710Z 07005KT 25/19 A3012 RMK A01 T02540189  RH  067%=      5-min Rain = 0
KWE2 140711Z 07005KT 26/19 A3012 RMK A01 T02560189  RH  067%=      5-min Rain = 0
KWE2 140712Z 08005KT 26/19 A3012 RMK A01 T02560189  RH  066%=      5-min Rain = 0
KWE2 140713Z 09005KT 26/19 A3012 RMK A01 T02560189  RH  066%=      5-min Rain = 0
KWE2 140714Z 08005KT 26/19 A3012 RMK A01 T02570189  RH  066%=      5-min Rain = 0
KWE2 140715Z 08006KT 26/19 A3012 RMK A01 T02570188  RH  066%=      5-min Rain = 0
KWE2 140716Z 07005KT 26/19 A3012 RMK A01 T02570188  RH  066%=      5-min Rain = 0
KWE2 140717Z 07005KT 26/19 A3012 RMK A01 T02570188  RH  066%=      5-min Rain = 0
KWE2 140718Z 07005KT 26/19 A3012 RMK A01 T02570188  RH  066%=      5-min Rain = 0
KWE2 140719Z 07004KT 26/19 A3012 RMK A01 T02560188  RH  066%=      5-min Rain = 0
KWE2 140720Z 06005KT 26/19 A3012 RMK A01 T02550189  RH  067%=      5-min Rain = 0
KWE2 140721Z 07004KT 25/19 A3012 RMK A01 T02530189  RH  067%=      5-min Rain = 0
KWE2 140722Z 06004KT 25/19 A3012 RMK A01 T02520189  RH  068%=      5-min Rain = 0
KWE2 140723Z 07005KT 25/19 A3012 RMK A01 T02510189  RH  069%=      5-min Rain = 0
KWE2 140724Z 07005KT 25/19 A3012 RMK A01 T02500189  RH  069%=      5-min Rain = 0
KWE2 140725Z 07004KT 25/19 A3012 RMK A01 T02500189  RH  069%=      5-min Rain = 0
KWE2 140726Z 06004KT 25/19 A3012 RMK A01 T02500189  RH  069%=      5-min Rain = 0
KWE2 140727Z 06005KT 25/19 A3012 RMK A01 T02500189  RH  069%=      5-min Rain = 0
KWE2 140728Z 06005KT 25/19 A3012 RMK A01 T02500189  RH  069%=      5-min Rain = 0
KWE2 140729Z 06005KT 25/19 A3012 RMK A01 T02500190  RH  069%=      5-min Rain = 0
KWE2 140730Z 06005KT 25/19 A3012 RMK A01 T02490190  RH  069%=      5-min Rain = 0
KWE2 140731Z 06005KT 25/19 A3012 RMK A01 T02490190  RH  070%=      5-min Rain = 0
KWE2 140732Z 06006KT 25/19 A3012 RMK A01 T02490190  RH  070%=      5-min Rain = 0
KWE2 140733Z 05005KT 25/19 A3012 RMK A01 T02490190  RH  070%=      5-min Rain = 0
KWE2 140734Z 05005KT 25/19 A3012 RMK A01 T02490190  RH  069%=      5-min Rain = 0
KWE2 140735Z 05006KT 25/19 A3012 RMK A01 T02490189  RH  070%=      5-min Rain = 0
KWE2 140736Z 05005KT 25/19 A3012 RMK A01 T02490190  RH  070%=      5-min Rain = 0
KWE2 140737Z 05005KT 25/19 A3012 RMK A01 T02480189  RH  070%=      5-min Rain = 0
KWE2 140738Z 05005KT 25/19 A3012 RMK A01 T02480189  RH  070%=      5-min Rain = 0
KWE2 140739Z 05006KT 25/19 A3012 RMK A01 T02470190  RH  070%=      5-min Rain = 0
KWE2 140740Z 05006KT 25/19 A3012 RMK A01 T02460189  RH  071%=      5-min Rain = 0
KWE2 140741Z 06005KT 25/19 A3012 RMK A01 T02470190  RH  071%=      5-min Rain = 0
KWE2 140742Z 06005KT 25/19 A3012 RMK A01 T02470190  RH  071%=      5-min Rain = 0
KWE2 140743Z 06005KT 25/19 A3012 RMK A01 T02470190  RH  071%=      5-min Rain = 0
KWE2 140744Z 05005KT 25/19 A3012 RMK A01 T02460190  RH  071%=      5-min Rain = 0
KWE2 140745Z 05005KT 25/19 A3012 RMK A01 T02460190  RH  071%=      5-min Rain = 0
KWE2 140746Z 05005KT 25/19 A3012 RMK A01 T02460190  RH  071%=      5-min Rain = 0
KWE2 140747Z 04005KT 25/19 A3012 RMK A01 T02460190  RH  071%=      5-min Rain = 0
KWE2 140748Z 04005KT 25/19 A3012 RMK A01 T02450189  RH  071%=      5-min Rain = 0
KWE2 140749Z 04004KT 25/19 A3012 RMK A01 T02450190  RH  071%=      5-min Rain = 0
KWE2 140750Z 05005KT 25/19 A3012 RMK A01 T02450189  RH  071%=      5-min Rain = 0
KWE2 140751Z 05005KT 25/19 A3012 RMK A01 T02450189  RH  071%=      5-min Rain = 0
KWE2 140752Z 05005KT 25/19 A3012 RMK A01 T02450189  RH  071%=      5-min Rain = 0
KWE2 140753Z 05006KT 25/19 A3012 RMK A01 T02450189  RH  071%=      5-min Rain = 0
KWE2 140754Z 05005KT 25/19 A3012 RMK A01 T02450189  RH  071%=      5-min Rain = 0
KWE2 140755Z 05006KT 25/19 A3012 RMK A01 T02450189  RH  071%=      5-min Rain = 0
KWE2 140756Z 05006KT 24/19 A3012 RMK A01 T02440188  RH  071%=      5-min Rain = 0
KWE2 140757Z 05006KT 24/19 A3012 RMK A01 T02440189  RH  071%=      5-min Rain = 0
KWE2 140758Z 05005KT 25/19 A3012 RMK A01 T02450189  RH  071%=      5-min Rain = 0
KWE2 140759Z 06005KT 25/19 A3012 RMK A01 T02450189  RH  071%=      5-min Rain = 0
KWE2 140800Z 06006KT 25/19 A3012 RMK A01 T02450189  RH  071%=      5-min Rain = 0
KWE2 140801Z 06005KT 24/19 A3012 RMK A01 T02440189  RH  071%=      5-min Rain = 0
KWE2 140802Z 06005KT 24/19 A3012 RMK A01 T02440189  RH  071%=      5-min Rain = 0
KWE2 140803Z 06005KT 25/19 A3012 RMK A01 T02450189  RH  071%=      5-min Rain = 0
KWE2 140804Z 06005KT 25/19 A3012 RMK A01 T02450189  RH  071%=      5-min Rain = 0
KWE2 140805Z 06005KT 25/19 A3012 RMK A01 T02450189  RH  071%=      5-min Rain = 0
KWE2 140806Z 06006KT 24/19 A3012 RMK A01 T02440189  RH  071%=      5-min Rain = 0
KWE2 140807Z 05006KT 24/19 A3012 RMK A01 T02440189  RH  071%=      5-min Rain = 0
KWE2 140808Z 06006KT 24/19 A3012 RMK A01 T02440189  RH  071%=      5-min Rain = 0
KWE2 140809Z 05006KT 24/19 A3012 RMK A01 T02440189  RH  071%=      5-min Rain = 0
KWE2 140810Z 06005KT 24/19 A3012 RMK A01 T02440189  RH  072%=      5-min Rain = 0
KWE2 140811Z 06006KT 24/19 A3012 RMK A01 T02440190  RH  072%=      5-min Rain = 0
KWE2 140812Z 05006KT 24/19 A3012 RMK A01 T02440189  RH  071%=      5-min Rain = 0
KWE2 140813Z 05008KT 24/19 A3012 RMK A01 T02440189  RH  071%=      5-min Rain = 0
KWE2 140814Z 06007KT 25/19 A3012 RMK A01 T02450190  RH  071%=      5-min Rain = 0
KWE2 140815Z 06007KT 25/19 A3012 RMK A01 T02460190  RH  071%=      5-min Rain = 0
KWE2 140816Z 06006KT 25/19 A3012 RMK A01 T02460190  RH  071%=      5-min Rain = 0
KWE2 140817Z 06006KT 25/19 A3012 RMK A01 T02450190  RH  071%=      5-min Rain = 0
KWE2 140818Z 06006KT 25/19 A3012 RMK A01 T02450190  RH  071%=      5-min Rain = 0
KWE2 140819Z 06005KT 25/19 A3012 RMK A01 T02450191  RH  071%=      5-min Rain = 0
KWE2 140820Z 06007KT 25/19 A3012 RMK A01 T02460191  RH  071%=      5-min Rain = 0
KWE2 140821Z 06007KT 25/19 A3012 RMK A01 T02460191  RH  071%=      5-min Rain = 0
KWE2 140822Z 06005KT 25/19 A3012 RMK A01 T02460190  RH  071%=      5-min Rain = 0
KWE2 140823Z 06006KT 25/19 A3012 RMK A01 T02460191  RH  071%=      5-min Rain = 0
KWE2 140824Z 06007KT 25/19 A3012 RMK A01 T02470191  RH  071%=      5-min Rain = 0
KWE2 140825Z 07007KT 25/19 A3012 RMK A01 T02470191  RH  071%=      5-min Rain = 0
KWE2 140826Z 06007KT 25/19 A3012 RMK A01 T02480191  RH  071%=      5-min Rain = 0
KWE2 140827Z 06006KT 25/19 A3012 RMK A01 T02480191  RH  071%=      5-min Rain = 0
KWE2 140828Z 06006KT 25/19 A3012 RMK A01 T02480191  RH  071%=      5-min Rain = 0
KWE2 140829Z 06009KT 25/19 A3012 RMK A01 T02490192  RH  071%=      5-min Rain = 0
KWE2 140830Z 06007KT 25/19 A3012 RMK A01 T02490191  RH  070%=      5-min Rain = 0
KWE2 140831Z 06007KT 25/19 A3012 RMK A01 T02500192  RH  070%=      5-min Rain = 0
KWE2 140832Z 06007KT 25/19 A3012 RMK A01 T02500192  RH  070%=      5-min Rain = 0
KWE2 140833Z 06006KT 25/19 A3012 RMK A01 T02500192  RH  070%=      5-min Rain = 0
KWE2 140834Z 06007KT 25/19 A3012 RMK A01 T02500192  RH  070%=      5-min Rain = 0
KWE2 140835Z 06007KT 25/19 A3012 RMK A01 T02500192  RH  070%=      5-min Rain = 0
KWE2 140836Z 06006KT 25/19 A3012 RMK A01 T02510192  RH  070%=      5-min Rain = 0
KWE2 140837Z 07008KT 25/19 A3012 RMK A01 T02510192  RH  070%=      5-min Rain = 0
KWE2 140838Z 06008KT 25/19 A3012 RMK A01 T02510192  RH  070%=      5-min Rain = 0
KWE2 140839Z 07008KT 25/19 A3012 RMK A01 T02510192  RH  070%=      5-min Rain = 0
KWE2 140840Z 06007KT 25/19 A3012 RMK A01 T02510192  RH  070%=      5-min Rain = 0
KWE2 140841Z 06007KT 25/19 A3012 RMK A01 T02510192  RH  070%=      5-min Rain = 0
KWE2 140842Z 07008KT 25/19 A3012 RMK A01 T02510192  RH  070%=      5-min Rain = 0
KWE2 140843Z 07006KT 25/19 A3012 RMK A01 T02510192  RH  070%=      5-min Rain = 0
KWE2 140844Z 07006KT 25/19 A3012 RMK A01 T02510192  RH  070%=      5-min Rain = 0
KWE2 140845Z 06006KT 25/19 A3012 RMK A01 T02510192  RH  070%=      5-min Rain = 0
KWE2 140846Z 07007KT 25/19 A3012 RMK A01 T02510192  RH  070%=      5-min Rain = 0
KWE2 140847Z 07006KT 25/19 A3012 RMK A01 T02510192  RH  070%=      5-min Rain = 0
KWE2 140848Z 07007KT 25/19 A3012 RMK A01 T02510192  RH  070%=      5-min Rain = 0
KWE2 140849Z 07008KT 25/19 A3012 RMK A01 T02520193  RH  070%=      5-min Rain = 0
KWE2 140850Z 07007KT 25/19 A3012 RMK A01 T02510193  RH  070%=      5-min Rain = 0
KWE2 140851Z 06007KT 25/19 A3012 RMK A01 T02510193  RH  070%=      5-min Rain = 0
KWE2 140852Z 06007KT 25/19 A3012 RMK A01 T02510193  RH  070%=      5-min Rain = 0
KWE2 140853Z 06008KT 25/19 A3012 RMK A01 T02510193  RH  070%=      5-min Rain = 0
KWE2 140854Z 07007KT 25/19 A3012 RMK A01 T02510193  RH  070%=      5-min Rain = 0
KWE2 140855Z 07007KT 25/19 A3012 RMK A01 T02510193  RH  070%=      5-min Rain = 0
KWE2 140856Z 07008KT 25/19 A3012 RMK A01 T02500193  RH  070%=      5-min Rain = 0
KWE2 140857Z 07009KT 25/19 A3012 RMK A01 T02500193  RH  070%=      5-min Rain = 0
KWE2 140858Z 07008KT 25/19 A3012 RMK A01 T02510193  RH  070%=      5-min Rain = 0
KWE2 140859Z 07007KT 25/19 A3012 RMK A01 T02510193  RH  070%=      5-min Rain = 0
KWE2 140900Z 07007KT 25/19 A3012 RMK A01 T02510193  RH  070%=      5-min Rain = 0
KWE2 140901Z 07007KT 25/19 A3012 RMK A01 T02510193  RH  070%=      5-min Rain = 0
KWE2 140902Z 07007KT 25/19 A3012 RMK A01 T02510193  RH  070%=      5-min Rain = 0
KWE2 140903Z 07008KT 25/19 A3012 RMK A01 T02510193  RH  070%=      5-min Rain = 0
KWE2 140904Z 07007KT 25/19 A3012 RMK A01 T02510193  RH  070%=      5-min Rain = 0
KWE2 140905Z 07007KT 25/19 A3013 RMK A01 T02510193  RH  070%=      5-min Rain = 0
KWE2 140906Z 06006KT 25/19 A3013 RMK A01 T02510193  RH  070%=      5-min Rain = 0
KWE2 140907Z 06006KT 25/19 A3013 RMK A01 T02520194  RH  070%=      5-min Rain = 0
KWE2 140908Z 07006KT 25/19 A3013 RMK A01 T02510194  RH  070%=      5-min Rain = 0
KWE2 140909Z 06006KT 25/19 A3013 RMK A01 T02510194  RH  070%=      5-min Rain = 0
KWE2 140910Z 06006KT 25/19 A3013 RMK A01 T02510194  RH  070%=      5-min Rain = 0
KWE2 140911Z 07007KT 25/19 A3013 RMK A01 T02520194  RH  070%=      5-min Rain = 0
KWE2 140912Z 06006KT 25/19 A3013 RMK A01 T02510194  RH  070%=      5-min Rain = 0
KWE2 140913Z 07006KT 25/19 A3013 RMK A01 T02510194  RH  070%=      5-min Rain = 0
KWE2 140914Z 07005KT 25/19 A3013 RMK A01 T02510194  RH  070%=      5-min Rain = 0
KWE2 140915Z 07007KT 25/19 A3013 RMK A01 T02510194  RH  070%=      5-min Rain = 0
KWE2 140916Z 08006KT 25/19 A3013 RMK A01 T02510193  RH  070%=      5-min Rain = 0
KWE2 140917Z 08007KT 25/19 A3013 RMK A01 T02510193  RH  070%=      5-min Rain = 0
KWE2 140918Z 07007KT 25/19 A3013 RMK A01 T02520193  RH  070%=      5-min Rain = 0
KWE2 140919Z 07007KT 25/19 A3013 RMK A01 T02520193  RH  070%=      5-min Rain = 0
KWE2 140920Z 07006KT 25/19 A3012 RMK A01 T02520193  RH  070%=      5-min Rain = 0
KWE2 140921Z 07007KT 25/19 A3012 RMK A01 T02520193  RH  070%=      5-min Rain = 0
KWE2 140922Z 07006KT 25/19 A3012 RMK A01 T02520193  RH  070%=      5-min Rain = 0
KWE2 140923Z 07007KT 25/19 A3012 RMK A01 T02520193  RH  070%=      5-min Rain = 0
KWE2 140924Z 07006KT 25/19 A3012 RMK A01 T02520193  RH  070%=      5-min Rain = 0
KWE2 140925Z 08008KT 25/19 A3012 RMK A01 T02520193  RH  070%=      5-min Rain = 0
KWE2 140926Z 07007KT 25/19 A3012 RMK A01 T02520193  RH  070%=      5-min Rain = 0
KWE2 140927Z 08007KT 25/19 A3012 RMK A01 T02520193  RH  070%=      5-min Rain = 0
KWE2 140928Z 08007KT 25/19 A3012 RMK A01 T02520193  RH  070%=      5-min Rain = 0
KWE2 140929Z 07008KT 25/19 A3012 RMK A01 T02520193  RH  070%=      5-min Rain = 0
KWE2 140930Z 07007KT 25/19 A3012 RMK A01 T02520193  RH  070%=      5-min Rain = 0
KWE2 140931Z 07006KT 25/19 A3012 RMK A01 T02520193  RH  070%=      5-min Rain = 0
KWE2 140932Z 08006KT 25/19 A3012 RMK A01 T02520193  RH  070%=      5-min Rain = 0
KWE2 140933Z 07006KT 25/19 A3012 RMK A01 T02510193  RH  070%=      5-min Rain = 0
KWE2 140934Z 07007KT 25/19 A3012 RMK A01 T02510193  RH  070%=      5-min Rain = 0
KWE2 140935Z 07008KT 25/19 A3012 RMK A01 T02510193  RH  070%=      5-min Rain = 0
KWE2 140936Z 07007KT 25/19 A3012 RMK A01 T02510193  RH  070%=      5-min Rain = 0
KWE2 140937Z 08008KT 25/19 A3012 RMK A01 T02510193  RH  070%=      5-min Rain = 0
KWE2 140938Z 08009KT 25/19 A3012 RMK A01 T02510193  RH  070%=      5-min Rain = 0
KWE2 140939Z 08006KT 25/19 A3012 RMK A01 T02510193  RH  070%=      5-min Rain = 0
KWE2 140940Z 07006KT 25/19 A3012 RMK A01 T02510193  RH  070%=      5-min Rain = 0
KWE2 140941Z 08007KT 25/19 A3012 RMK A01 T02500193  RH  071%=      5-min Rain = 0
KWE2 140942Z 07006KT 25/19 A3012 RMK A01 T02500193  RH  071%=      5-min Rain = 0
KWE2 140943Z 07006KT 25/19 A3012 RMK A01 T02490193  RH  071%=      5-min Rain = 0
KWE2 140944Z 07008KT 25/19 A3012 RMK A01 T02490193  RH  071%=      5-min Rain = 0
KWE2 140945Z 07007KT 25/19 A3012 RMK A01 T02490193  RH  071%=      5-min Rain = 0
KWE2 140946Z 07006KT 25/19 A3012 RMK A01 T02490193  RH  071%=      5-min Rain = 0
KWE2 140947Z 07007KT 25/19 A3012 RMK A01 T02480193  RH  071%=      5-min Rain = 0
KWE2 140948Z 07006KT 25/19 A3012 RMK A01 T02480193  RH  072%=      5-min Rain = 0
KWE2 140949Z 07006KT 25/19 A3012 RMK A01 T02470193  RH  072%=      5-min Rain = 0
KWE2 140950Z 07007KT 25/19 A3012 RMK A01 T02460193  RH  072%=      5-min Rain = 0
KWE2 140951Z 07006KT 25/19 A3012 RMK A01 T02460193  RH  072%=      5-min Rain = 0
KWE2 140952Z 06005KT 25/19 A3012 RMK A01 T02460193  RH  072%=      5-min Rain = 0
KWE2 140953Z 07004KT 25/19 A3012 RMK A01 T02450193  RH  072%=      5-min Rain = 0
KWE2 140954Z 07005KT 25/19 A3012 RMK A01 T02450193  RH  073%=      5-min Rain = 0
KWE2 140955Z 07005KT 24/19 A3012 RMK A01 T02440193  RH  073%=      5-min Rain = 0
KWE2 140956Z 06005KT 24/19 A3012 RMK A01 T02440193  RH  073%=      5-min Rain = 0
KWE2 140957Z 06006KT 24/19 A3012 RMK A01 T02430193  RH  073%=      5-min Rain = 0
KWE2 140958Z 06005KT 24/19 A3012 RMK A01 T02430193  RH  074%=      5-min Rain = 0
KWE2 140959Z 06006KT 24/19 A3012 RMK A01 T02420193  RH  074%=      5-min Rain = 0
KWE2 141000Z 05005KT 24/19 A3012 RMK A01 T02410192  RH  074%=      5-min Rain = 0
KWE2 141001Z 06006KT 24/19 A3012 RMK A01 T02400193  RH  075%=      5-min Rain = 0
KWE2 141002Z 06005KT 24/19 A3012 RMK A01 T02400193  RH  075%=      5-min Rain = 0
KWE2 141003Z 06005KT 24/19 A3012 RMK A01 T02400193  RH  075%=      5-min Rain = 0
KWE2 141004Z 05006KT 24/19 A3012 RMK A01 T02390192  RH  075%=      5-min Rain = 0
KWE2 141005Z 05006KT 24/19 A3012 RMK A01 T02390192  RH  075%=      5-min Rain = 0
KWE2 141006Z 06006KT 24/19 A3012 RMK A01 T02390193  RH  075%=      5-min Rain = 0
KWE2 141007Z 06006KT 24/19 A3012 RMK A01 T02390192  RH  075%=      5-min Rain = 0
KWE2 141008Z 06008KT 24/19 A3012 RMK A01 T02380192  RH  075%=      5-min Rain = 0
KWE2 141009Z 06008KT 24/19 A3012 RMK A01 T02390192  RH  075%=      5-min Rain = 0
KWE2 141010Z 05007KT 24/19 A3012 RMK A01 T02400192  RH  074%=      5-min Rain = 0
KWE2 141011Z 06007KT 24/19 A3012 RMK A01 T02400192  RH  074%=      5-min Rain = 0
KWE2 141012Z 06007KT 24/19 A3012 RMK A01 T02400192  RH  074%=      5-min Rain = 0
KWE2 141013Z 06006KT 24/19 A3012 RMK A01 T02400192  RH  074%=      5-min Rain = 0
KWE2 141014Z 06007KT 24/19 A3012 RMK A01 T02400192  RH  074%=      5-min Rain = 0
KWE2 141015Z 05007KT 24/19 A3012 RMK A01 T02400192  RH  074%=      5-min Rain = 0
KWE2 141016Z 05006KT 24/19 A3012 RMK A01 T02400192  RH  074%=      5-min Rain = 0
KWE2 141017Z 05007KT 24/19 A3012 RMK A01 T02390191  RH  075%=      5-min Rain = 0
KWE2 141018Z 05007KT 24/19 A3012 RMK A01 T02390192  RH  075%=      5-min Rain = 0
KWE2 141019Z 04007KT 24/19 A3012 RMK A01 T02380191  RH  075%=      5-min Rain = 0
KWE2 141020Z 04008KT 24/19 A3012 RMK A01 T02370191  RH  075%=      5-min Rain = 0
KWE2 141021Z 05007KT 24/19 A3012 RMK A01 T02370191  RH  075%=      5-min Rain = 0
KWE2 141022Z 04008KT 24/19 A3012 RMK A01 T02370191  RH  075%=      5-min Rain = 0
KWE2 141023Z 04009KT 24/19 A3012 RMK A01 T02370191  RH  075%=      5-min Rain = 0
KWE2 141024Z 04008KT 24/19 A3012 RMK A01 T02380191  RH  075%=      5-min Rain = 0
KWE2 141025Z 05009KT 24/19 A3012 RMK A01 T02380191  RH  075%=      5-min Rain = 0
KWE2 141026Z 05009KT 24/19 A3013 RMK A01 T02380190  RH  075%=      5-min Rain = 0
KWE2 141027Z 05009KT 24/19 A3013 RMK A01 T02380191  RH  075%=      5-min Rain = 0
KWE2 141028Z 05008KT 24/19 A3013 RMK A01 T02370191  RH  075%=      5-min Rain = 0
KWE2 141029Z 05008KT 24/19 A3013 RMK A01 T02370190  RH  075%=      5-min Rain = 0
KWE2 141030Z 05008KT 24/19 A3013 RMK A01 T02370190  RH  075%=      5-min Rain = 0
KWE2 141031Z 04007KT 24/19 A3013 RMK A01 T02370190  RH  075%=      5-min Rain = 0
KWE2 141032Z 04008KT 24/19 A3013 RMK A01 T02370190  RH  075%=      5-min Rain = 0
KWE2 141033Z 05007KT 24/19 A3013 RMK A01 T02370190  RH  075%=      5-min Rain = 0
KWE2 141034Z 05008KT 24/19 A3013 RMK A01 T02370190  RH  075%=      5-min Rain = 0
KWE2 141035Z 05007KT 24/19 A3013 RMK A01 T02370190  RH  075%=      5-min Rain = 0
KWE2 141036Z 05008KT 24/19 A3013 RMK A01 T02360190  RH  075%=      5-min Rain = 0
KWE2 141037Z 05007KT 24/19 A3013 RMK A01 T02360190  RH  075%=      5-min Rain = 0
KWE2 141038Z 05007KT 24/19 A3013 RMK A01 T02360190  RH  075%=      5-min Rain = 0
KWE2 141039Z 04008KT 24/19 A3013 RMK A01 T02350190  RH  076%=      5-min Rain = 0
KWE2 141040Z 04008KT 24/19 A3013 RMK A01 T02350190  RH  076%=      5-min Rain = 0
KWE2 141041Z 04007KT 24/19 A3013 RMK A01 T02350190  RH  076%=      5-min Rain = 0
KWE2 141042Z 04008KT 24/19 A3013 RMK A01 T02350190  RH  076%=      5-min Rain = 0
KWE2 141043Z 04008KT 23/19 A3013 RMK A01 T02340190  RH  076%=      5-min Rain = 0
KWE2 141044Z 04006KT 23/19 A3013 RMK A01 T02340190  RH  076%=      5-min Rain = 0
KWE2 141045Z 04007KT 23/19 A3013 RMK A01 T02340190  RH  076%=      5-min Rain = 0
KWE2 141046Z 04008KT 23/19 A3013 RMK A01 T02340190  RH  076%=      5-min Rain = 0
KWE2 141047Z 05008KT 24/19 A3013 RMK A01 T02350190  RH  076%=      5-min Rain = 0
KWE2 141048Z 04008KT 24/19 A3013 RMK A01 T02350190  RH  076%=      5-min Rain = 0
KWE2 141049Z 05008KT 23/19 A3013 RMK A01 T02340190  RH  076%=      5-min Rain = 0
KWE2 141050Z 04008KT 23/19 A3013 RMK A01 T02340190  RH  076%=      5-min Rain = 0
KWE2 141051Z 05009KT 23/19 A3013 RMK A01 T02340190  RH  076%=      5-min Rain = 0
KWE2 141052Z 05009KT 23/19 A3013 RMK A01 T02340190  RH  076%=      5-min Rain = 0
KWE2 141053Z 05008KT 23/19 A3013 RMK A01 T02340189  RH  076%=      5-min Rain = 0
KWE2 141054Z 05008KT 23/19 A3013 RMK A01 T02340189  RH  076%=      5-min Rain = 0
KWE2 141055Z 05008KT 23/19 A3013 RMK A01 T02340190  RH  076%=      5-min Rain = 0
KWE2 141056Z 05008KT 23/19 A3013 RMK A01 T02340190  RH  076%=      5-min Rain = 0
KWE2 141057Z 05007KT 23/19 A3013 RMK A01 T02330189  RH  076%=      5-min Rain = 0
KWE2 141058Z 05010KT 23/19 A3013 RMK A01 T02330189  RH  076%=      5-min Rain = 0
KWE2 141059Z 05008KT 23/19 A3013 RMK A01 T02330189  RH  076%=      5-min Rain = 0
KWE2 141100Z 05007KT 23/19 A3013 RMK A01 T02330189  RH  076%=      5-min Rain = 0
KWE2 141101Z 05008KT 23/19 A3013 RMK A01 T02330189  RH  076%=      5-min Rain = 0
KWE2 141102Z 05008KT 23/19 A3013 RMK A01 T02320189  RH  077%=      5-min Rain = 0
KWE2 141103Z 06008KT 23/19 A3013 RMK A01 T02330190  RH  077%=      5-min Rain = 0
KWE2 141104Z 06008KT 23/19 A3013 RMK A01 T02320189  RH  077%=      5-min Rain = 0
KWE2 141105Z 05008KT 23/19 A3013 RMK A01 T02320189  RH  077%=      5-min Rain = 0
KWE2 141106Z 06007KT 23/19 A3013 RMK A01 T02320189  RH  076%=      5-min Rain = 0
KWE2 141107Z 05008KT 23/19 A3013 RMK A01 T02330189  RH  076%=      5-min Rain = 0
KWE2 141108Z 05009KT 23/19 A3013 RMK A01 T02330189  RH  076%=      5-min Rain = 0
KWE2 141109Z 05007KT 23/19 A3013 RMK A01 T02330189  RH  076%=      5-min Rain = 0
KWE2 141110Z 05008KT 23/19 A3013 RMK A01 T02320189  RH  076%=      5-min Rain = 0
KWE2 141111Z 05009KT 23/19 A3013 RMK A01 T02330189  RH  076%=      5-min Rain = 0
KWE2 141112Z 05007KT 23/19 A3014 RMK A01 T02330189  RH  076%=      5-min Rain = 0
KWE2 141113Z 05007KT 23/19 A3014 RMK A01 T02330189  RH  076%=      5-min Rain = 0
KWE2 141114Z 05010KT 23/19 A3014 RMK A01 T02320189  RH  076%=      5-min Rain = 0
KWE2 141115Z 05009KT 23/19 A3014 RMK A01 T02320188  RH  076%=      5-min Rain = 0
KWE2 141116Z 05007KT 23/19 A3014 RMK A01 T02330188  RH  076%=      5-min Rain = 0
KWE2 141117Z 06009KT 23/19 A3014 RMK A01 T02330188  RH  076%=      5-min Rain = 0
KWE2 141118Z 05006KT 23/19 A3014 RMK A01 T02320188  RH  076%=      5-min Rain = 0
KWE2 141119Z 05008KT 23/19 A3014 RMK A01 T02320188  RH  076%=      5-min Rain = 0
KWE2 141120Z 05008KT 23/19 A3014 RMK A01 T02320188  RH  076%=      5-min Rain = 0
KWE2 141121Z 05007KT 23/19 A3014 RMK A01 T02320188  RH  076%=      5-min Rain = 0
KWE2 141122Z 05007KT 23/19 A3014 RMK A01 T02320188  RH  076%=      5-min Rain = 0
KWE2 141123Z 06007KT 23/19 A3014 RMK A01 T02320188  RH  077%=      5-min Rain = 0
KWE2 141124Z 05008KT 23/19 A3014 RMK A01 T02310188  RH  077%=      5-min Rain = 0
KWE2 141125Z 05008KT 23/19 A3014 RMK A01 T02310188  RH  077%=      5-min Rain = 0
KWE2 141126Z 05009KT 23/19 A3014 RMK A01 T02310188  RH  076%=      5-min Rain = 0
KWE2 141127Z 05008KT 23/19 A3014 RMK A01 T02310187  RH  076%=      5-min Rain = 0
KWE2 141128Z 05007KT 23/19 A3014 RMK A01 T02320188  RH  076%=      5-min Rain = 0
KWE2 141129Z 05008KT 23/19 A3014 RMK A01 T02320188  RH  076%=      5-min Rain = 0
KWE2 141130Z 05007KT 23/19 A3014 RMK A01 T02310188  RH  076%=      5-min Rain = 0
KWE2 141131Z 05009KT 23/19 A3014 RMK A01 T02310187  RH  076%=      5-min Rain = 0
KWE2 141132Z 05008KT 23/19 A3014 RMK A01 T02310187  RH  076%=      5-min Rain = 0
KWE2 141133Z 04007KT 23/19 A3014 RMK A01 T02310187  RH  076%=      5-min Rain = 0
KWE2 141134Z 05007KT 23/19 A3015 RMK A01 T02310187  RH  076%=      5-min Rain = 0
KWE2 141135Z 05007KT 23/19 A3015 RMK A01 T02310187  RH  076%=      5-min Rain = 0
KWE2 141136Z 05007KT 23/19 A3015 RMK A01 T02310187  RH  076%=      5-min Rain = 0
KWE2 141137Z 05008KT 23/19 A3015 RMK A01 T02320187  RH  076%=      5-min Rain = 0
KWE2 141138Z 05007KT 23/19 A3015 RMK A01 T02320187  RH  076%=      5-min Rain = 0
KWE2 141139Z 05008KT 23/19 A3015 RMK A01 T02320187  RH  076%=      5-min Rain = 0
KWE2 141140Z 05008KT 23/19 A3015 RMK A01 T02320187  RH  076%=      5-min Rain = 0
KWE2 141141Z 05007KT 23/19 A3015 RMK A01 T02310187  RH  076%=      5-min Rain = 0
KWE2 141142Z 05009KT 23/19 A3015 RMK A01 T02310187  RH  076%=      5-min Rain = 0
KWE2 141143Z 05007KT 23/19 A3015 RMK A01 T02310187  RH  076%=      5-min Rain = 0
KWE2 141144Z 05008KT 23/19 A3015 RMK A01 T02310187  RH  076%=      5-min Rain = 0
KWE2 141145Z 05008KT 23/19 A3015 RMK A01 T02310187  RH  077%=      5-min Rain = 0
KWE2 141146Z 05009KT 23/19 A3015 RMK A01 T02300187  RH  077%=      5-min Rain = 0
KWE2 141147Z 05009KT 23/19 A3015 RMK A01 T02300187  RH  077%=      5-min Rain = 0
KWE2 141148Z 05010KT 23/19 A3015 RMK A01 T02300187  RH  076%=      5-min Rain = 0
KWE2 141149Z 05009KT 23/19 A3015 RMK A01 T02300186  RH  076%=      5-min Rain = 0
KWE2 141150Z 05009KT 23/19 A3015 RMK A01 T02300186  RH  076%=      5-min Rain = 0
KWE2 141151Z 05009KT 23/19 A3016 RMK A01 T02300186  RH  076%=      5-min Rain = 0
KWE2 141152Z 05010KT 23/19 A3016 RMK A01 T02300186  RH  076%=      5-min Rain = 0
KWE2 141153Z 05010KT 23/19 A3016 RMK A01 T02300186  RH  076%=      5-min Rain = 0
KWE2 141154Z 05008KT 23/19 A3016 RMK A01 T02310186  RH  076%=      5-min Rain = 0
KWE2 141155Z 05009KT 23/19 A3016 RMK A01 T02310187  RH  076%=      5-min Rain = 0
KWE2 141156Z 05009G14KT 23/19 A3016 RMK A01 T02310186  RH  076%=      5-min Rain = 0
KWE2 141157Z 05013KT 23/19 A3016 RMK A01 T02310186  RH  076%=      5-min Rain = 0
KWE2 141158Z 05013KT 23/19 A3016 RMK A01 T02310186  RH  076%=      5-min Rain = 0
KWE2 141159Z 05012KT 23/19 A3016 RMK A01 T02320186  RH  075%=      5-min Rain = 0
KWE2 141200Z 06016KT 23/19 A3016 RMK A01 T02330186  RH  075%=      5-min Rain = 0
KWE2 141201Z 06012KT 23/19 A3016 RMK A01 T02340187  RH  075%=      5-min Rain = 0
KWE2 141202Z 05010KT 23/19 A3016 RMK A01 T02340187  RH  075%=      5-min Rain = 0
KWE2 141203Z 05010KT 23/19 A3016 RMK A01 T02330187  RH  075%=      5-min Rain = 0
KWE2 141204Z 06010KT 23/19 A3016 RMK A01 T02330187  RH  075%=      5-min Rain = 0
KWE2 141205Z 06011KT 23/19 A3016 RMK A01 T02330187  RH  075%=      5-min Rain = 0
KWE2 141206Z 06010KT 23/19 A3016 RMK A01 T02330187  RH  075%=      5-min Rain = 0
KWE2 141207Z 05012KT 23/19 A3016 RMK A01 T02330187  RH  075%=      5-min Rain = 0
KWE2 141208Z 06010KT 23/19 A3016 RMK A01 T02330187  RH  075%=      5-min Rain = 0
KWE2 141209Z 06009KT 23/19 A3016 RMK A01 T02330187  RH  075%=      5-min Rain = 0
KWE2 141210Z 05010KT 23/19 A3016 RMK A01 T02320186  RH  076%=      5-min Rain = 0
KWE2 141211Z 05008KT 23/19 A3016 RMK A01 T02320187  RH  076%=      5-min Rain = 0
KWE2 141212Z 05010KT 23/19 A3016 RMK A01 T02320187  RH  076%=      5-min Rain = 0
KWE2 141213Z 05012KT 23/19 A3016 RMK A01 T02320187  RH  076%=      5-min Rain = 0
KWE2 141214Z 04012KT 23/19 A3016 RMK A01 T02320186  RH  076%=      5-min Rain = 0
KWE2 141215Z 05011KT 23/19 A3017 RMK A01 T02320186  RH  075%=      5-min Rain = 0
KWE2 141216Z 05011KT 23/19 A3017 RMK A01 T02320186  RH  076%=      5-min Rain = 0
KWE2 141217Z 04010KT 23/19 A3017 RMK A01 T02320187  RH  076%=      5-min Rain = 0
KWE2 141218Z 04010KT 23/19 A3017 RMK A01 T02310186  RH  076%=      5-min Rain = 0
KWE2 141219Z 05009KT 23/19 A3017 RMK A01 T02310186  RH  076%=      5-min Rain = 0
KWE2 141220Z 05011KT 23/19 A3017 RMK A01 T02310186  RH  076%=      5-min Rain = 0
KWE2 141221Z 05011KT 23/19 A3017 RMK A01 T02310186  RH  076%=      5-min Rain = 0
KWE2 141222Z 05010KT 23/19 A3017 RMK A01 T02300186  RH  076%=      5-min Rain = 0
KWE2 141223Z 05011KT 23/19 A3017 RMK A01 T02300186  RH  076%=      5-min Rain = 0
KWE2 141224Z 05012KT 23/19 A3017 RMK A01 T02300185  RH  076%=      5-min Rain = 0
KWE2 141225Z 05010KT 23/19 A3017 RMK A01 T02300185  RH  076%=      5-min Rain = 0
KWE2 141226Z 05011KT 23/18 A3017 RMK A01 T02300184  RH  075%=      5-min Rain = 0
KWE2 141227Z 05012KT 23/18 A3017 RMK A01 T02300184  RH  075%=      5-min Rain = 0
KWE2 141228Z 05013KT 23/18 A3017 RMK A01 T02300183  RH  075%=      5-min Rain = 0
KWE2 141229Z 05011KT 23/18 A3017 RMK A01 T02300183  RH  075%=      5-min Rain = 0
KWE2 141230Z 05010KT 23/18 A3017 RMK A01 T02300183  RH  075%=      5-min Rain = 0
KWE2 141231Z 04011KT 23/18 A3017 RMK A01 T02300183  RH  075%=      5-min Rain = 0
KWE2 141232Z 05011KT 23/18 A3018 RMK A01 T02290182  RH  075%=      5-min Rain = 0
KWE2 141233Z 05013KT 23/18 A3018 RMK A01 T02300183  RH  075%=      5-min Rain = 0
KWE2 141234Z 05010KT 23/18 A3018 RMK A01 T02290183  RH  075%=      5-min Rain = 0
KWE2 141235Z 05014KT 23/18 A3018 RMK A01 T02290182  RH  075%=      5-min Rain = 0
KWE2 141236Z 05014KT 23/18 A3018 RMK A01 T02290181  RH  075%=      5-min Rain = 0
KWE2 141237Z 05015KT 23/18 A3018 RMK A01 T02290181  RH  074%=      5-min Rain = 0
KWE2 141238Z 05014G19KT 23/18 A3018 RMK A01 T02290181  RH  074%=      5-min Rain = 0
KWE2 141239Z 05016KT 23/18 A3018 RMK A01 T02290181  RH  074%=      5-min Rain = 0
KWE2 141240Z 05016KT 23/18 A3018 RMK A01 T02290181  RH  074%=      5-min Rain = 0
KWE2 141241Z 06013KT 23/18 A3018 RMK A01 T02290181  RH  074%=      5-min Rain = 0
KWE2 141242Z 06014G19KT 23/18 A3018 RMK A01 T02290181  RH  074%=      5-min Rain = 0
KWE2 141243Z 07016KT 23/18 A3018 RMK A01 T02290180  RH  074%=      5-min Rain = 0
KWE2 141244Z 06015G20KT 23/18 A3018 RMK A01 T02290180  RH  074%=      5-min Rain = 0
KWE2 141245Z 06014G20KT 23/18 A3018 RMK A01 T02290180  RH  074%=      5-min Rain = 0
KWE2 141246Z 06015KT 23/18 A3018 RMK A01 T02290180  RH  074%=      5-min Rain = 0
KWE2 141247Z 06013G18KT 23/18 A3018 RMK A01 T02290180  RH  074%=      5-min Rain = 0
KWE2 141248Z 06011KT 23/18 A3018 RMK A01 T02290181  RH  074%=      5-min Rain = 0
KWE2 141249Z 06013G18KT 23/18 A3018 RMK A01 T02290181  RH  074%=      5-min Rain = 0
KWE2 141250Z 06014KT 23/18 A3018 RMK A01 T02290181  RH  074%=      5-min Rain = 0
KWE2 141251Z 06013KT 23/18 A3018 RMK A01 T02280180  RH  074%=      5-min Rain = 0
KWE2 141252Z 06012KT 23/18 A3018 RMK A01 T02280180  RH  074%=      5-min Rain = 0
KWE2 141253Z 06012KT 23/18 A3018 RMK A01 T02280180  RH  074%=      5-min Rain = 0
KWE2 141254Z 05010KT 23/18 A3018 RMK A01 T02280180  RH  074%=      5-min Rain = 0
KWE2 141255Z 05012G19KT 23/18 A3018 RMK A01 T02280181  RH  075%=      5-min Rain = 0
KWE2 141256Z 05015KT 23/18 A3018 RMK A01 T02280180  RH  074%=      5-min Rain = 0
KWE2 141257Z 05012KT 23/18 A3018 RMK A01 T02280180  RH  074%=      5-min Rain = 0
KWE2 141258Z 05014KT 23/18 A3018 RMK A01 T02280180  RH  074%=      5-min Rain = 0
KWE2 141259Z 05013KT 23/18 A3018 RMK A01 T02280180  RH  074%=      5-min Rain = 0
KWE2 141300Z 05014KT 23/18 A3018 RMK A01 T02280180  RH  074%=      5-min Rain = 0
KWE2 141301Z 05013KT 23/18 A3018 RMK A01 T02280180  RH  074%=      5-min Rain = 0
KWE2 141302Z 04014G19KT 23/18 A3018 RMK A01 T02280180  RH  074%=      5-min Rain = 0
KWE2 141303Z 05017KT 23/18 A3018 RMK A01 T02280179  RH  074%=      5-min Rain = 0
KWE2 141304Z 05014KT 23/18 A3018 RMK A01 T02280179  RH  074%=      5-min Rain = 0
KWE2 141305Z 05015G20KT 23/18 A3018 RMK A01 T02270178  RH  074%=      5-min Rain = 0
KWE2 141306Z 05013KT 23/18 A3018 RMK A01 T02280179  RH  074%=      5-min Rain = 0
KWE2 141307Z 05016KT 23/18 A3018 RMK A01 T02280179  RH  074%=      5-min Rain = 0
KWE2 141308Z 05014G19KT 23/18 A3018 RMK A01 T02270178  RH  074%=      5-min Rain = 0
KWE2 141309Z 05013KT 23/18 A3019 RMK A01 T02280179  RH  074%=      5-min Rain = 0
KWE2 141310Z 04011KT 23/18 A3019 RMK A01 T02280179  RH  074%=      5-min Rain = 0
KWE2 141311Z 04011KT 23/18 A3019 RMK A01 T02280179  RH  074%=      5-min Rain = 0
KWE2 141312Z 04016KT 23/18 A3018 RMK A01 T02280178  RH  073%=      5-min Rain = 0
KWE2 141313Z 05014KT 23/18 A3019 RMK A01 T02280178  RH  073%=      5-min Rain = 0
KWE2 141314Z 05015KT 23/18 A3019 RMK A01 T02280178  RH  073%=      5-min Rain = 0
KWE2 141315Z 05016KT 23/18 A3019 RMK A01 T02280178  RH  073%=      5-min Rain = 0
KWE2 141316Z 05014KT 23/18 A3019 RMK A01 T02280178  RH  073%=      5-min Rain = 0
KWE2 141317Z 04015KT 23/18 A3019 RMK A01 T02280178  RH  073%=      5-min Rain = 0
KWE2 141318Z 04015KT 23/18 A3019 RMK A01 T02280178  RH  073%=      5-min Rain = 0
KWE2 141319Z 04013KT 23/18 A3019 RMK A01 T02280178  RH  073%=      5-min Rain = 0
KWE2 141320Z 04012KT 23/18 A3019 RMK A01 T02290179  RH  074%=      5-min Rain = 0
KWE2 141321Z 04011KT 23/18 A3019 RMK A01 T02290180  RH  074%=      5-min Rain = 0
KWE2 141322Z 04014KT 23/18 A3019 RMK A01 T02290179  RH  073%=      5-min Rain = 0
KWE2 141323Z 05011KT 23/18 A3019 RMK A01 T02290179  RH  073%=      5-min Rain = 0
KWE2 141324Z 05014KT 23/18 A3019 RMK A01 T02290179  RH  073%=      5-min Rain = 0
KWE2 141325Z 04017KT 23/18 A3019 RMK A01 T02290178  RH  073%=      5-min Rain = 0
KWE2 141326Z 05013KT 23/18 A302 RMK A01 T02280179  RH  073%=      5-min Rain = 0
KWE2 141327Z 04017KT 23/18 A302 RMK A01 T02280178  RH  073%=      5-min Rain = 0
KWE2 141328Z 05016KT 23/18 A302 RMK A01 T02280178  RH  073%=      5-min Rain = 0
KWE2 141329Z 05014KT 23/18 A302 RMK A01 T02280178  RH  074%=      5-min Rain = 0
KWE2 141330Z 03014G19KT 23/18 A302 RMK A01 T02270177  RH  073%=      5-min Rain = 0
KWE2 141331Z 04017KT 23/18 A302 RMK A01 T02280177  RH  073%=      5-min Rain = 0
KWE2 141332Z 05015G20KT 23/18 A302 RMK A01 T02290177  RH  073%=      5-min Rain = 0
KWE2 141333Z 04015G21KT 23/18 A302 RMK A01 T02280177  RH  073%=      5-min Rain = 0
KWE2 141334Z 04016G21KT 23/18 A302 RMK A01 T02280176  RH  072%=      5-min Rain = 0
KWE2 141335Z 04014KT 23/18 A3021 RMK A01 T02280176  RH  072%=      5-min Rain = 0
KWE2 141336Z 04017KT 23/18 A3021 RMK A01 T02290176  RH  072%=      5-min Rain = 0
KWE2 141337Z 04017KT 23/18 A3021 RMK A01 T02290176  RH  072%=      5-min Rain = 0
KWE2 141338Z 04016KT 23/18 A3021 RMK A01 T02290176  RH  072%=      5-min Rain = 0
KWE2 141339Z 03013KT 23/18 A3021 RMK A01 T02300176  RH  072%=      5-min Rain = 0
KWE2 141340Z 03012KT 23/18 A3021 RMK A01 T02300177  RH  072%=      5-min Rain = 0
KWE2 141341Z 03013G19KT 23/18 A3021 RMK A01 T02310177  RH  072%=      5-min Rain = 0
KWE2 141342Z 03020KT 23/18 A3021 RMK A01 T02310175  RH  071%=      5-min Rain = 0
KWE2 141343Z 03017KT 23/17 A3021 RMK A01 T02310174  RH  071%=      5-min Rain = 0
KWE2 141344Z 03017KT 23/18 A3021 RMK A01 T02300175  RH  071%=      5-min Rain = 0
KWE2 141345Z 04014KT 23/17 A3022 RMK A01 T02300174  RH  071%=      5-min Rain = 0
KWE2 141346Z 04014KT 23/18 A3022 RMK A01 T02310175  RH  071%=      5-min Rain = 0
KWE2 141347Z 04014G19KT 23/17 A3022 RMK A01 T02320174  RH  070%=      5-min Rain = 0
KWE2 141348Z 03011KT 23/18 A3022 RMK A01 T02320175  RH  070%=      5-min Rain = 0
KWE2 141349Z 03012G18KT 23/18 A3022 RMK A01 T02330176  RH  070%=      5-min Rain = 0
KWE2 141350Z 03020KT 23/17 A3022 RMK A01 T02340173  RH  069%=      5-min Rain = 0
KWE2 141351Z 04021G27KT 23/17 A3022 RMK A01 T02320171  RH  068%=      5-min Rain = 0
KWE2 141352Z 04016KT 23/17 A3022 RMK A01 T02300171  RH  069%=      5-min Rain = 0
KWE2 141353Z 04011G17KT 23/17 A3022 RMK A01 T02310172  RH  069%=      5-min Rain = 0
KWE2 141354Z 04014KT 23/17 A3022 RMK A01 T02330173  RH  069%=      5-min Rain = 0
KWE2 141355Z 04013KT 23/17 A3022 RMK A01 T02340172  RH  068%=      5-min Rain = 0
KWE2 141356Z 03013G18KT 23/17 A3022 RMK A01 T02340172  RH  068%=      5-min Rain = 0
KWE2 141357Z 04014KT 23/17 A3022 RMK A01 T02340172  RH  068%=      5-min Rain = 0
KWE2 141358Z 03018KT 23/17 A3023 RMK A01 T02340172  RH  068%=      5-min Rain = 0
KWE2 141359Z 03015G20KT 23/17 A3023 RMK A01 T02340173  RH  068%=      5-min Rain = 0
KWE2 141400Z 04019G24KT 23/17 A3023 RMK A01 T02340172  RH  068%=      5-min Rain = 0
KWE2 141401Z 04017KT 23/17 A3023 RMK A01 T02330170  RH  068%=      5-min Rain = 0
KWE2 141402Z 03019KT 23/17 A3023 RMK A01 T02320170  RH  068%=      5-min Rain = 0
KWE2 141403Z 04020KT 23/17 A3023 RMK A01 T02310169  RH  068%=      5-min Rain = 0
KWE2 141404Z 03019KT 23/17 A3023 RMK A01 T02300168  RH  068%=      5-min Rain = 0
KWE2 141405Z 03020G27KT 23/17 A3023 RMK A01 T02300168  RH  068%=      5-min Rain = 0
KWE2 141406Z 03020KT 23/17 A3023 RMK A01 T02300167  RH  067%=      5-min Rain = 0
KWE2 141407Z 04019G24KT 23/17 A3023 RMK A01 T02300167  RH  067%=      5-min Rain = 0
KWE2 141408Z 03018KT 23/17 A3023 RMK A01 T02310167  RH  067%=      5-min Rain = 0
KWE2 141409Z 04016KT 23/17 A3023 RMK A01 T02320167  RH  067%=      5-min Rain = 0
KWE2 141410Z 04015G23KT 23/17 A3023 RMK A01 T02320167  RH  067%=      5-min Rain = 0
KWE2 141411Z 04018G24KT 23/17 A3023 RMK A01 T02330167  RH  066%=      5-min Rain = 0
KWE2 141412Z 04017G23KT 23/17 A3023 RMK A01 T02320167  RH  067%=      5-min Rain = 0
KWE2 141413Z 04018KT 23/17 A3023 RMK A01 T02320166  RH  066%=      5-min Rain = 0
KWE2 141414Z 04018G23KT 23/17 A3023 RMK A01 T02330167  RH  066%=      5-min Rain = 0
KWE2 141415Z 04016KT 23/17 A3024 RMK A01 T02330166  RH  066%=      5-min Rain = 0
KWE2 141416Z 04014KT 23/17 A3024 RMK A01 T02340168  RH  066%=      5-min Rain = 0
KWE2 141417Z 03014G20KT 24/17 A3024 RMK A01 T02370169  RH  066%=      5-min Rain = 0
KWE2 141418Z 03015G20KT 24/17 A3024 RMK A01 T02380169  RH  065%=      5-min Rain = 0
KWE2 141419Z 03014KT 24/17 A3024 RMK A01 T02390168  RH  065%=      5-min Rain = 0
KWE2 141420Z 03016KT 24/17 A3024 RMK A01 T02390168  RH  064%=      5-min Rain = 0
KWE2 141421Z 03018KT 24/17 A3024 RMK A01 T02400168  RH  064%=      5-min Rain = 0
KWE2 141422Z 03017KT 24/17 A3024 RMK A01 T02390168  RH  064%=      5-min Rain = 0
KWE2 141423Z 04015KT 24/17 A3024 RMK A01 T02380169  RH  065%=      5-min Rain = 0
KWE2 141424Z 04018KT 24/17 A3024 RMK A01 T02390169  RH  065%=      5-min Rain = 0
KWE2 141425Z 03019KT 24/17 A3024 RMK A01 T02390168  RH  064%=      5-min Rain = 0
KWE2 141426Z 03015G20KT 24/17 A3024 RMK A01 T02380168  RH  065%=      5-min Rain = 0
KWE2 141427Z 04020KT 24/17 A3024 RMK A01 T02390168  RH  064%=      5-min Rain = 0
KWE2 141428Z 04019KT 24/17 A3024 RMK A01 T02380167  RH  065%=      5-min Rain = 0
KWE2 141429Z 05021KT 24/17 A3024 RMK A01 T02380167  RH  065%=      5-min Rain = 0
KWE2 141430Z 04015KT 24/17 A3024 RMK A01 T02370168  RH  065%=      5-min Rain = 0
KWE2 141431Z 04014KT 24/17 A3024 RMK A01 T02380169  RH  065%=      5-min Rain = 0
KWE2 141432Z 05016KT 24/17 A3024 RMK A01 T02400169  RH  064%=      5-min Rain = 0
KWE2 141433Z 05018G23KT 24/17 A3024 RMK A01 T02400169  RH  064%=      5-min Rain = 0
KWE2 141434Z 04017KT 24/17 A3024 RMK A01 T02400169  RH  064%=      5-min Rain = 0
KWE2 141435Z 03018KT 24/17 A3024 RMK A01 T02390168  RH  064%=      5-min Rain = 0
KWE2 141436Z 03015KT 24/17 A3024 RMK A01 T02400168  RH  064%=      5-min Rain = 0
KWE2 141437Z 03018KT 24/17 A3024 RMK A01 T02420169  RH  064%=      5-min Rain = 0
KWE2 141438Z 04018KT 24/17 A3024 RMK A01 T02420168  RH  063%=      5-min Rain = 0
KWE2 141439Z 04017G23KT 24/17 A3024 RMK A01 T02410169  RH  064%=      5-min Rain = 0
KWE2 141440Z 05017KT 24/17 A3024 RMK A01 T02410169  RH  064%=      5-min Rain = 0
KWE2 141441Z 06017KT 24/17 A3024 RMK A01 T02400169  RH  065%=      5-min Rain = 0
KWE2 141442Z 05016KT 24/17 A3024 RMK A01 T02400171  RH  065%=      5-min Rain = 0
KWE2 141443Z 05015KT 24/17 A3024 RMK A01 T02410172  RH  065%=      5-min Rain = 0
KWE2 141444Z 04017KT 24/17 A3024 RMK A01 T02430171  RH  064%=      5-min Rain = 0
KWE2 141445Z 04016G22KT 24/17 A3024 RMK A01 T02430169  RH  064%=      5-min Rain = 0
KWE2 141446Z 04016G22KT 24/17 A3024 RMK A01 T02420170  RH  064%=      5-min Rain = 0
KWE2 141447Z 04015KT 24/17 A3024 RMK A01 T02430169  RH  064%=      5-min Rain = 0
KWE2 141448Z 04016G21KT 24/17 A3024 RMK A01 T02430170  RH  064%=      5-min Rain = 0
KWE2 141449Z 05016KT 24/17 A3024 RMK A01 T02420170  RH  064%=      5-min Rain = 0
KWE2 141450Z 05016KT 24/17 A3024 RMK A01 T02420170  RH  064%=      5-min Rain = 0
KWE2 141451Z 05014KT 24/17 A3024 RMK A01 T02420170  RH  064%=      5-min Rain = 0
KWE2 141452Z 05014G19KT 24/17 A3024 RMK A01 T02430170  RH  064%=      5-min Rain = 0
KWE2 141453Z 04017KT 24/17 A3024 RMK A01 T02440169  RH  063%=      5-min Rain = 0
KWE2 141454Z 05018KT 24/17 A3024 RMK A01 T02440169  RH  063%=      5-min Rain = 0
KWE2 141455Z 04020KT 25/17 A3024 RMK A01 T02450169  RH  063%=      5-min Rain = 0
KWE2 141456Z 04016KT 25/17 A3024 RMK A01 T02450168  RH  062%=      5-min Rain = 0
KWE2 141457Z 05014KT 25/17 A3024 RMK A01 T02470171  RH  062%=      5-min Rain = 0
KWE2 141458Z 05016G21KT 25/17 A3024 RMK A01 T02490170  RH  062%=      5-min Rain = 0
KWE2 141459Z 05017KT 25/17 A3024 RMK A01 T02490171  RH  062%=      5-min Rain = 0
KWE2 141500Z 05017KT 25/17 A3024 RMK A01 T02490170  RH  061%=      5-min Rain = 0
KWE2 141501Z 05014G19KT 25/17 A3024 RMK A01 T02500171  RH  062%=      5-min Rain = 0
KWE2 141502Z 04013KT 25/17 A3024 RMK A01 T02520173  RH  062%=      5-min Rain = 0
KWE2 141503Z 05014KT 26/17 A3024 RMK A01 T02570173  RH  060%=      5-min Rain = 0
KWE2 141504Z 05015KT 26/17 A3024 RMK A01 T02580172  RH  059%=      5-min Rain = 0
KWE2 141505Z 05019KT 26/17 A3024 RMK A01 T02550170  RH  059%=      5-min Rain = 0
KWE2 141506Z 04017KT 25/17 A3024 RMK A01 T02520169  RH  060%=      5-min Rain = 0
KWE2 141507Z 05015KT 25/17 A3024 RMK A01 T02500169  RH  061%=      5-min Rain = 0
KWE2 141508Z 05015KT 25/17 A3024 RMK A01 T02530170  RH  060%=      5-min Rain = 0
KWE2 141509Z 06012KT 25/17 A3024 RMK A01 T02540171  RH  060%=      5-min Rain = 0
KWE2 141510Z 05011KT 26/17 A3024 RMK A01 T02560172  RH  060%=      5-min Rain = 0
KWE2 141511Z 04015KT 26/17 A3024 RMK A01 T02570172  RH  059%=      5-min Rain = 0
KWE2 141512Z 04015KT 26/17 A3024 RMK A01 T02580171  RH  059%=      5-min Rain = 0
KWE2 141513Z 04014KT 26/17 A3024 RMK A01 T02580170  RH  058%=      5-min Rain = 0
KWE2 141514Z 05014KT 26/17 A3024 RMK A01 T02600172  RH  058%=      5-min Rain = 0
KWE2 141515Z 05011KT 26/17 A3024 RMK A01 T02600173  RH  059%=      5-min Rain = 0
KWE2 141516Z 05013KT 26/17 A3024 RMK A01 T02610173  RH  059%=      5-min Rain = 0
KWE2 141517Z 04011KT 26/18 A3024 RMK A01 T02630175  RH  058%=      5-min Rain = 0
KWE2 141518Z 05009KT 27/18 A3024 RMK A01 T02660177  RH  058%=      5-min Rain = 0
KWE2 141519Z 05012KT 27/18 A3024 RMK A01 T02680176  RH  057%=      5-min Rain = 0
KWE2 141520Z 06014KT 27/18 A3024 RMK A01 T02670176  RH  057%=      5-min Rain = 0
KWE2 141521Z 05012KT 27/18 A3024 RMK A01 T02650175  RH  058%=      5-min Rain = 0
KWE2 141522Z 05013KT 26/18 A3024 RMK A01 T02640175  RH  058%=      5-min Rain = 0
KWE2 141523Z 05014G20KT 26/17 A3024 RMK A01 T02620174  RH  058%=      5-min Rain = 0
KWE2 141524Z 05016KT 26/17 A3024 RMK A01 T02610172  RH  058%=      5-min Rain = 0
KWE2 141525Z 05017KT 26/17 A3024 RMK A01 T02600173  RH  059%=      5-min Rain = 0
KWE2 141526Z 04017G23KT 26/17 A3024 RMK A01 T02590172  RH  058%=      5-min Rain = 0
KWE2 141527Z 05015KT 26/17 A3024 RMK A01 T02590171  RH  058%=      5-min Rain = 0
KWE2 141528Z 04013KT 26/17 A3024 RMK A01 T02590173  RH  059%=      5-min Rain = 0
KWE2 141529Z 05017KT 26/17 A3024 RMK A01 T02610174  RH  059%=      5-min Rain = 0
KWE2 141530Z 05019KT 26/17 A3024 RMK A01 T02610172  RH  058%=      5-min Rain = 0
KWE2 141531Z 05016G21KT 26/17 A3024 RMK A01 T02610171  RH  058%=      5-min Rain = 0
KWE2 141532Z 05018G23KT 26/17 A3024 RMK A01 T02610172  RH  058%=      5-min Rain = 0
KWE2 141533Z 04017KT 26/17 A3024 RMK A01 T02610171  RH  058%=      5-min Rain = 0
KWE2 141534Z 05015KT 26/17 A3024 RMK A01 T02620172  RH  058%=      5-min Rain = 0
KWE2 141535Z 05011KT 26/17 A3024 RMK A01 T02630173  RH  058%=      5-min Rain = 0
KWE2 141536Z 04013KT 27/18 A3024 RMK A01 T02650175  RH  058%=      5-min Rain = 0
KWE2 141537Z 05014KT 27/18 A3024 RMK A01 T02670175  RH  057%=      5-min Rain = 0
KWE2 141538Z 05012KT 27/18 A3024 RMK A01 T02670176  RH  057%=      5-min Rain = 0
KWE2 141539Z 04013KT 27/18 A3024 RMK A01 T02670175  RH  057%=      5-min Rain = 0
KWE2 141540Z 05014KT 27/18 A3024 RMK A01 T02680175  RH  057%=      5-min Rain = 0
KWE2 141541Z 04013KT 27/18 A3024 RMK A01 T02700175  RH  056%=      5-min Rain = 0
KWE2 141542Z 05014KT 27/17 A3024 RMK A01 T02700174  RH  056%=      5-min Rain = 0
KWE2 141543Z 04014KT 27/17 A3024 RMK A01 T02700174  RH  056%=      5-min Rain = 0
KWE2 141544Z 04016KT 27/17 A3024 RMK A01 T02700173  RH  055%=      5-min Rain = 0
KWE2 141545Z 04015KT 27/17 A3024 RMK A01 T02700172  RH  055%=      5-min Rain = 0
KWE2 141546Z 04010KT 27/17 A3024 RMK A01 T02720174  RH  055%=      5-min Rain = 0
KWE2 141547Z 04015KT 28/17 A3024 RMK A01 T02750174  RH  054%=      5-min Rain = 0
KWE2 141548Z 04013KT 27/17 A3024 RMK A01 T02740173  RH  054%=      5-min Rain = 0
KWE2 141549Z 05014KT 27/17 A3024 RMK A01 T02740174  RH  054%=      5-min Rain = 0
KWE2 141550Z 06013KT 27/18 A3024 RMK A01 T02740176  RH  055%=      5-min Rain = 0
KWE2 141551Z 05015KT 27/17 A3024 RMK A01 T02740174  RH  054%=      5-min Rain = 0
KWE2 141552Z 05014KT 27/17 A3024 RMK A01 T02740174  RH  055%=      5-min Rain = 0
KWE2 141553Z 06016KT 27/18 A3024 RMK A01 T02740175  RH  055%=      5-min Rain = 0
KWE2 141554Z 06018KT 28/17 A3024 RMK A01 T02750174  RH  054%=      5-min Rain = 0
KWE2 141555Z 06013G18KT 28/17 A3024 RMK A01 T02750172  RH  053%=      5-min Rain = 0
KWE2 141556Z 05012KT 28/17 A3024 RMK A01 T02750174  RH  054%=      5-min Rain = 0
KWE2 141557Z 05013KT 28/18 A3024 RMK A01 T02760175  RH  054%=      5-min Rain = 0
KWE2 141558Z 06014KT 28/18 A3024 RMK A01 T02760177  RH  055%=      5-min Rain = 0
KWE2 141559Z 06012KT 28/17 A3023 RMK A01 T02750174  RH  054%=      5-min Rain = 0
KWE2 141600Z 06010KT 28/18 A3023 RMK A01 T02760177  RH  055%=      5-min Rain = 0
KWE2 141601Z 06012KT 28/18 A3023 RMK A01 T02780176  RH  054%=      5-min Rain = 0
KWE2 141602Z 05009KT 28/18 A3023 RMK A01 T02770178  RH  055%=      5-min Rain = 0
KWE2 141603Z 06013KT 28/18 A3023 RMK A01 T02770176  RH  054%=      5-min Rain = 0
KWE2 141604Z 05014KT 28/17 A3023 RMK A01 T02770174  RH  053%=      5-min Rain = 0
KWE2 141605Z 04013KT 28/17 A3023 RMK A01 T02780173  RH  053%=      5-min Rain = 0
KWE2 141606Z 05014KT 28/17 A3023 RMK A01 T02780172  RH  053%=      5-min Rain = 0
KWE2 141607Z 04014KT 28/17 A3023 RMK A01 T02780173  RH  053%=      5-min Rain = 0
KWE2 141608Z 04015KT 28/17 A3023 RMK A01 T02790173  RH  052%=      5-min Rain = 0
KWE2 141609Z 05013KT 28/17 A3023 RMK A01 T02770173  RH  053%=      5-min Rain = 0
KWE2 141610Z 04014KT 28/17 A3023 RMK A01 T02790173  RH  053%=      5-min Rain = 0
KWE2 141611Z 04016KT 28/17 A3023 RMK A01 T02790170  RH  051%=      5-min Rain = 0
KWE2 141612Z 04014KT 28/17 A3023 RMK A01 T02780170  RH  052%=      5-min Rain = 0
KWE2 141613Z 04014KT 28/17 A3023 RMK A01 T02780170  RH  052%=      5-min Rain = 0
KWE2 141614Z 04015KT 28/17 A3023 RMK A01 T02780171  RH  052%=      5-min Rain = 0
KWE2 141615Z 05014KT 28/17 A3023 RMK A01 T02790169  RH  051%=      5-min Rain = 0
KWE2 141616Z 05011KT 28/17 A3023 RMK A01 T02790172  RH  052%=      5-min Rain = 0
KWE2 141617Z 05013KT 28/17 A3023 RMK A01 T02830171  RH  051%=      5-min Rain = 0
KWE2 141618Z 05014KT 28/17 A3023 RMK A01 T02820169  RH  050%=      5-min Rain = 0
KWE2 141619Z 06013KT 28/17 A3023 RMK A01 T02810170  RH  051%=      5-min Rain = 0
KWE2 141620Z 05010KT 28/17 A3023 RMK A01 T02800169  RH  051%=      5-min Rain = 0
KWE2 141621Z 04011KT 28/17 A3022 RMK A01 T02810171  RH  051%=      5-min Rain = 0
KWE2 141622Z 05013KT 28/17 A3022 RMK A01 T02840173  RH  051%=      5-min Rain = 0
KWE2 141623Z 05012KT 29/17 A3022 RMK A01 T02850174  RH  051%=      5-min Rain = 0
KWE2 141624Z 04013KT 29/17 A3023 RMK A01 T02850174  RH  051%=      5-min Rain = 0
KWE2 141625Z 05014KT 29/17 A3023 RMK A01 T02850170  RH  050%=      5-min Rain = 0
KWE2 141626Z 04013KT 29/17 A3022 RMK A01 T02850169  RH  049%=      5-min Rain = 0
KWE2 141627Z 04014KT 29/17 A3022 RMK A01 T02850170  RH  050%=      5-min Rain = 0
KWE2 141628Z 05015KT 29/17 A3023 RMK A01 T02860168  RH  049%=      5-min Rain = 0
KWE2 141629Z 05014KT 29/17 A3023 RMK A01 T02860170  RH  049%=      5-min Rain = 0
KWE2 141630Z 05015KT 29/17 A3023 RMK A01 T02860169  RH  049%=      5-min Rain = 0
KWE2 141631Z 04013KT 29/17 A3023 RMK A01 T02870169  RH  049%=      5-min Rain = 0
KWE2 141632Z 04015KT 29/17 A3023 RMK A01 T02870168  RH  049%=      5-min Rain = 0
KWE2 141633Z 05012KT 29/17 A3023 RMK A01 T02870169  RH  049%=      5-min Rain = 0
KWE2 141634Z 05011KT 29/17 A3023 RMK A01 T02860169  RH  049%=      5-min Rain = 0
KWE2 141635Z 05010KT 29/17 A3023 RMK A01 T02880173  RH  050%=      5-min Rain = 0
KWE2 141636Z 05011KT 29/17 A3023 RMK A01 T02910174  RH  049%=      5-min Rain = 0
KWE2 141637Z 06011KT 29/17 A3023 RMK A01 T02920174  RH  049%=      5-min Rain = 0
KWE2 141638Z 05016KT 29/17 A3023 RMK A01 T02920172  RH  048%=      5-min Rain = 0
KWE2 141639Z 05012KT 29/17 A3023 RMK A01 T02910169  RH  048%=      5-min Rain = 0
KWE2 141640Z 05009KT 29/17 A3023 RMK A01 T02900170  RH  048%=      5-min Rain = 0
KWE2 141641Z 04010KT 29/17 A3023 RMK A01 T02910171  RH  048%=      5-min Rain = 0
KWE2 141642Z 03014KT 29/17 A3023 RMK A01 T02940171  RH  047%=      5-min Rain = 0
KWE2 141643Z 03013KT 30/17 A3023 RMK A01 T02950168  RH  046%=      5-min Rain = 0
KWE2 141644Z 03011KT 29/17 A3023 RMK A01 T02930168  RH  047%=      5-min Rain = 0
KWE2 141645Z 02014KT 29/17 A3022 RMK A01 T02940168  RH  047%=      5-min Rain = 0
KWE2 141646Z 03011KT 29/17 A3022 RMK A01 T02940168  RH  047%=      5-min Rain = 0
KWE2 141647Z 04011KT 30/17 A3022 RMK A01 T02960168  RH  046%=      5-min Rain = 0
KWE2 141648Z 03014KT 30/17 A3022 RMK A01 T02960168  RH  046%=      5-min Rain = 0
KWE2 141649Z 04012KT 30/17 A3022 RMK A01 T02950169  RH  047%=      5-min Rain = 0
KWE2 141650Z 04012KT 30/17 A3022 RMK A01 T02990170  RH  046%=      5-min Rain = 0
KWE2 141651Z 03013KT 30/17 A3022 RMK A01 T02980167  RH  045%=      5-min Rain = 0
KWE2 141652Z 03014KT 30/17 A3022 RMK A01 T02970167  RH  045%=      5-min Rain = 0
KWE2 141653Z 04013KT 30/17 A3022 RMK A01 T02980167  RH  045%=      5-min Rain = 0
KWE2 141654Z 04012KT 30/17 A3022 RMK A01 T02960168  RH  046%=      5-min Rain = 0
KWE2 141655Z 04013KT 30/17 A3022 RMK A01 T02960167  RH  046%=      5-min Rain = 0
KWE2 141656Z 04014KT 30/17 A3022 RMK A01 T02950165  RH  045%=      5-min Rain = 0
KWE2 141657Z 03014KT 29/17 A3022 RMK A01 T02930165  RH  046%=      5-min Rain = 0
KWE2 141658Z 04014KT 29/16 A3022 RMK A01 T02930163  RH  045%=      5-min Rain = 0
KWE2 141659Z 02014KT 29/16 A3022 RMK A01 T02930164  RH  046%=      5-min Rain = 0
KWE2 141700Z 03016G21KT 30/16 A3022 RMK A01 T02960163  RH  045%=      5-min Rain = 0
KWE2 141701Z 05013KT 30/16 A3022 RMK A01 T02960162  RH  044%=      5-min Rain = 0
KWE2 141702Z 05013KT 30/17 A3022 RMK A01 T02960165  RH  045%=      5-min Rain = 0
KWE2 141703Z 06012KT 30/17 A3022 RMK A01 T02960166  RH  046%=      5-min Rain = 0
KWE2 141704Z 05015KT 30/17 A3022 RMK A01 T02970165  RH  045%=      5-min Rain = 0
KWE2 141705Z 04012KT 30/17 A3022 RMK A01 T02950166  RH  046%=      5-min Rain = 0
KWE2 141706Z 04011KT 30/17 A3022 RMK A01 T02950169  RH  047%=      5-min Rain = 0
KWE2 141707Z 04011G17KT 30/17 A3022 RMK A01 T02990171  RH  046%=      5-min Rain = 0
KWE2 141708Z 04015KT 30/17 A3022 RMK A01 T03030169  RH  045%=      5-min Rain = 0
KWE2 141709Z 04015KT 30/17 A3021 RMK A01 T03030166  RH  044%=      5-min Rain = 0
KWE2 141710Z 04013KT 30/17 A3021 RMK A01 T02990168  RH  045%=      5-min Rain = 0
KWE2 141711Z 03013KT 30/17 A3021 RMK A01 T03010167  RH  045%=      5-min Rain = 0
KWE2 141712Z 03011KT 30/17 A3021 RMK A01 T03020168  RH  045%=      5-min Rain = 0
KWE2 141713Z 04013KT 30/17 A3021 RMK A01 T03040167  RH  044%=      5-min Rain = 0
KWE2 141714Z 03012KT 30/17 A3021 RMK A01 T03020167  RH  044%=      5-min Rain = 0
KWE2 141715Z 05009KT 30/17 A3021 RMK A01 T03020170  RH  045%=      5-min Rain = 0
KWE2 141716Z 04010KT 30/17 A3021 RMK A01 T03040172  RH  045%=      5-min Rain = 0
KWE2 141717Z 04012KT 31/17 A3021 RMK A01 T03050170  RH  044%=      5-min Rain = 0
KWE2 141718Z 06011KT 31/17 A3021 RMK A01 T03050171  RH  044%=      5-min Rain = 0
KWE2 141719Z 06011KT 31/17 A3021 RMK A01 T03050171  RH  044%=      5-min Rain = 0
KWE2 141720Z 06010KT 30/17 A3021 RMK A01 T03040171  RH  045%=      5-min Rain = 0
KWE2 141721Z 06011KT 30/17 A3021 RMK A01 T03040170  RH  045%=      5-min Rain = 0
KWE2 141722Z 07009KT 31/17 A302 RMK A01 T03050169  RH  044%=      5-min Rain = 0
KWE2 141723Z 06009KT 31/17 A302 RMK A01 T03070172  RH  044%=      5-min Rain = 0
KWE2 141724Z 06011KT 31/17 A302 RMK A01 T03090171  RH  044%=      5-min Rain = 0
KWE2 141725Z 06009KT 31/17 A302 RMK A01 T03070172  RH  044%=      5-min Rain = 0
KWE2 141726Z 07010G15KT 31/17 A302 RMK A01 T03060172  RH  045%=      5-min Rain = 0
KWE2 141727Z 07013KT 31/17 A302 RMK A01 T03070169  RH  044%=      5-min Rain = 0
KWE2 141728Z 07012KT 31/17 A302 RMK A01 T03060168  RH  043%=      5-min Rain = 0
KWE2 141729Z 08012KT 30/17 A302 RMK A01 T03030169  RH  045%=      5-min Rain = 0
KWE2 141730Z 08012KT 30/17 A302 RMK A01 T03020169  RH  045%=      5-min Rain = 0
KWE2 141731Z 08008KT 30/17 A302 RMK A01 T03010170  RH  045%=      5-min Rain = 0
KWE2 141732Z 07013KT 30/17 A302 RMK A01 T03010168  RH  045%=      5-min Rain = 0
KWE2 141733Z 05011KT 30/17 A302 RMK A01 T03010167  RH  044%=      5-min Rain = 0
KWE2 141734Z 06012KT 30/17 A302 RMK A01 T03040168  RH  044%=      5-min Rain = 0
KWE2 141735Z 08013KT 31/16 A302 RMK A01 T03060163  RH  042%=      5-min Rain = 0
KWE2 141736Z 07011KT 30/16 A302 RMK A01 T03040163  RH  042%=      5-min Rain = 0
KWE2 141737Z 08010KT 30/17 A302 RMK A01 T03030165  RH  043%=      5-min Rain = 0
KWE2 141738Z 08013KT 31/17 A302 RMK A01 T03060166  RH  043%=      5-min Rain = 0
KWE2 141739Z 07013KT 31/16 A302 RMK A01 T03070162  RH  042%=      5-min Rain = 0
KWE2 141740Z 08013G20KT 31/16 A302 RMK A01 T03050162  RH  042%=      5-min Rain = 0
KWE2 141741Z 06013KT 31/16 A302 RMK A01 T03050164  RH  043%=      5-min Rain = 0
KWE2 141742Z 06009KT 31/16 A302 RMK A01 T03050164  RH  043%=      5-min Rain = 0
KWE2 141743Z 06009KT 31/16 A302 RMK A01 T03070163  RH  042%=      5-min Rain = 0
KWE2 141744Z 06013KT 31/17 A3019 RMK A01 T03090165  RH  042%=      5-min Rain = 0
KWE2 141745Z 07013KT 31/17 A3019 RMK A01 T03100165  RH  042%=      5-min Rain = 0
KWE2 141746Z 08014G19KT 31/16 A3019 RMK A01 T03100162  RH  041%=      5-min Rain = 0
KWE2 141747Z 08012KT 31/16 A3019 RMK A01 T03070162  RH  042%=      5-min Rain = 0
KWE2 141748Z 09012KT 31/16 A3019 RMK A01 T03060162  RH  042%=      5-min Rain = 0
KWE2 141749Z 07011KT 31/16 A3019 RMK A01 T03050163  RH  042%=      5-min Rain = 0
KWE2 141750Z 05012KT 31/16 A3019 RMK A01 T03060164  RH  042%=      5-min Rain = 0
KWE2 141751Z 06010KT 31/16 A3019 RMK A01 T03070162  RH  042%=      5-min Rain = 0
KWE2 141752Z 07011KT 31/16 A3019 RMK A01 T03080164  RH  042%=      5-min Rain = 0
KWE2 141753Z 06012KT 31/16 A3019 RMK A01 T03100164  RH  041%=      5-min Rain = 0
KWE2 141754Z 07011KT 31/16 A3019 RMK A01 T03110163  RH  041%=      5-min Rain = 0
KWE2 141755Z 08010KT 31/16 A3019 RMK A01 T03110163  RH  041%=      5-min Rain = 0
KWE2 141756Z 10010KT 31/17 A3019 RMK A01 T03120166  RH  042%=      5-min Rain = 0
KWE2 141757Z 09012KT 32/17 A3019 RMK A01 T03150166  RH  041%=      5-min Rain = 0
KWE2 141758Z 08011KT 32/16 A3019 RMK A01 T03160162  RH  040%=      5-min Rain = 0
KWE2 141759Z 09012KT 31/16 A3019 RMK A01 T03140163  RH  040%=      5-min Rain = 0
KWE2 141800Z 10011G17KT 32/17 A3019 RMK A01 T03150165  RH  040%=      5-min Rain = 0
KWE2 141801Z 09015KT 32/16 A3019 RMK A01 T03170161  RH  039%=      5-min Rain = 0
KWE2 141802Z 09013G18KT 32/16 A3018 RMK A01 T03160161  RH  039%=      5-min Rain = 0
KWE2 141803Z 08013KT 32/16 A3018 RMK A01 T03160161  RH  039%=      5-min Rain = 0
KWE2 141804Z 07013KT 32/16 A3019 RMK A01 T03150162  RH  040%=      5-min Rain = 0
KWE2 141805Z 07012KT 31/16 A3018 RMK A01 T03140161  RH  040%=      5-min Rain = 0
KWE2 141806Z 07010G15KT 31/16 A3018 RMK A01 T03110161  RH  040%=      5-min Rain = 0
KWE2 141807Z 07011KT 31/16 A3018 RMK A01 T03120159  RH  040%=      5-min Rain = 0
KWE2 141808Z 08009KT 31/16 A3018 RMK A01 T03130158  RH  039%=      5-min Rain = 0
KWE2 141809Z 07009KT 31/16 A3018 RMK A01 T03130159  RH  039%=      5-min Rain = 0
KWE2 141810Z 07012KT 31/16 A3018 RMK A01 T03130161  RH  040%=      5-min Rain = 0
KWE2 141811Z 07011G16KT 31/16 A3018 RMK A01 T03140163  RH  040%=      5-min Rain = 0
KWE2 141812Z 09009KT 31/16 A3018 RMK A01 T03140164  RH  040%=      5-min Rain = 0
KWE2 141813Z 09013KT 32/17 A3018 RMK A01 T03150171  RH  042%=      5-min Rain = 0
KWE2 141814Z 09013KT 32/18 A3018 RMK A01 T03170175  RH  043%=      5-min Rain = 0
KWE2 141815Z 10013KT 32/18 A3018 RMK A01 T03180175  RH  043%=      5-min Rain = 0
KWE2 141816Z 10012KT 32/17 A3018 RMK A01 T03170174  RH  042%=      5-min Rain = 0
KWE2 141817Z 12011KT 32/18 A3018 RMK A01 T03150175  RH  043%=      5-min Rain = 0
KWE2 141818Z 10014G19KT 32/18 A3018 RMK A01 T03160175  RH  043%=      5-min Rain = 0
KWE2 141819Z 10014G19KT 32/17 A3018 RMK A01 T03170170  RH  041%=      5-min Rain = 0
KWE2 141820Z 11011KT 31/17 A3018 RMK A01 T03140170  RH  042%=      5-min Rain = 0
KWE2 141821Z 10012KT 31/17 A3018 RMK A01 T03130170  RH  042%=      5-min Rain = 0
KWE2 141822Z 09012KT 32/17 A3018 RMK A01 T03150169  RH  042%=      5-min Rain = 0
KWE2 141823Z 08013KT 32/17 A3018 RMK A01 T03170168  RH  041%=      5-min Rain = 0
KWE2 141824Z 07012KT 32/17 A3018 RMK A01 T03160168  RH  041%=      5-min Rain = 0
KWE2 141825Z 08012KT 32/17 A3018 RMK A01 T03150165  RH  040%=      5-min Rain = 0
KWE2 141826Z 07012KT 31/16 A3018 RMK A01 T03130164  RH  041%=      5-min Rain = 0
KWE2 141827Z 07009KT 31/17 A3018 RMK A01 T03140167  RH  041%=      5-min Rain = 0
KWE2 141828Z 08010KT 32/17 A3018 RMK A01 T03180169  RH  041%=      5-min Rain = 0
KWE2 141829Z 09011KT 32/17 A3018 RMK A01 T03200168  RH  040%=      5-min Rain = 0
KWE2 141830Z 08009KT 32/17 A3018 RMK A01 T03200171  RH  041%=      5-min Rain = 0
KWE2 141831Z 06012G18KT 32/17 A3018 RMK A01 T03220168  RH  040%=      5-min Rain = 0
KWE2 141832Z 07014KT 32/17 A3018 RMK A01 T03220165  RH  039%=      5-min Rain = 0
KWE2 141833Z 07012KT 32/16 A3018 RMK A01 T03180164  RH  040%=      5-min Rain = 0
KWE2 141834Z 09011KT 32/17 A3018 RMK A01 T03170166  RH  040%=      5-min Rain = 0
KWE2 141835Z 09012KT 32/17 A3018 RMK A01 T03180165  RH  040%=      5-min Rain = 0
KWE2 141836Z 08011KT 32/16 A3018 RMK A01 T03180162  RH  039%=      5-min Rain = 0
KWE2 141837Z 11013KT 32/17 A3017 RMK A01 T03170165  RH  040%=      5-min Rain = 0
KWE2 141838Z 11012KT 32/16 A3017 RMK A01 T03170164  RH  040%=      5-min Rain = 0
KWE2 141839Z 10012KT 32/17 A3017 RMK A01 T03160168  RH  041%=      5-min Rain = 0
KWE2 141840Z 08010G15KT 32/16 A3017 RMK A01 T03210164  RH  039%=      5-min Rain = 0
KWE2 141841Z 10011G16KT 32/17 A3017 RMK A01 T03230168  RH  040%=      5-min Rain = 0
KWE2 141842Z 10016KT 32/17 A3017 RMK A01 T03220166  RH  039%=      5-min Rain = 0
KWE2 141843Z 10015KT 32/16 A3017 RMK A01 T03200164  RH  039%=      5-min Rain = 0
KWE2 141844Z 10013KT 32/16 A3017 RMK A01 T03190164  RH  039%=      5-min Rain = 0
KWE2 141845Z 09012KT 32/16 A3017 RMK A01 T03190163  RH  039%=      5-min Rain = 0
KWE2 141846Z 08009KT 32/16 A3017 RMK A01 T03190162  RH  039%=      5-min Rain = 0
KWE2 141847Z 10012G17KT 32/17 A3017 RMK A01 T03200165  RH  039%=      5-min Rain = 0
KWE2 141848Z 10016KT 32/16 A3017 RMK A01 T03230160  RH  037%=      5-min Rain = 0
KWE2 141849Z 09012KT 32/16 A3017 RMK A01 T03210159  RH  038%=      5-min Rain = 0
KWE2 141850Z 09014G19KT 32/16 A3017 RMK A01 T03200159  RH  038%=      5-min Rain = 0
KWE2 141851Z 09015KT 32/16 A3017 RMK A01 T03200159  RH  038%=      5-min Rain = 0
KWE2 141852Z 10013KT 32/16 A3017 RMK A01 T03200159  RH  038%=      5-min Rain = 0
KWE2 141853Z 08011KT 32/16 A3017 RMK A01 T03210158  RH  038%=      5-min Rain = 0
KWE2 141854Z 07011KT 32/16 A3017 RMK A01 T03210159  RH  038%=      5-min Rain = 0
KWE2 141855Z 08013KT 32/16 A3017 RMK A01 T03220158  RH  037%=      5-min Rain = 0
KWE2 141856Z 10011KT 32/16 A3017 RMK A01 T03210161  RH  038%=      5-min Rain = 0
KWE2 141857Z 10014KT 32/16 A3017 RMK A01 T03230164  RH  039%=      5-min Rain = 0
KWE2 141858Z 09012KT 32/17 A3017 RMK A01 T03230166  RH  039%=      5-min Rain = 0
KWE2 141859Z 09012KT 32/17 A3017 RMK A01 T03210165  RH  039%=      5-min Rain = 0
KWE2 141900Z 09014KT 32/16 A3017 RMK A01 T03230160  RH  038%=      5-min Rain = 0
KWE2 141901Z 07010KT 32/16 A3017 RMK A01 T03240158  RH  037%=      5-min Rain = 0
KWE2 141902Z 08009KT 32/16 A3017 RMK A01 T03230160  RH  038%=      5-min Rain = 0
KWE2 141903Z 11011KT 32/16 A3017 RMK A01 T03230161  RH  038%=      5-min Rain = 0
KWE2 141904Z 09014KT 33/16 A3017 RMK A01 T03260159  RH  037%=      5-min Rain = 0
KWE2 141905Z 09012KT 33/16 A3017 RMK A01 T03260155  RH  036%=      5-min Rain = 0
KWE2 141906Z 09010KT 32/16 A3017 RMK A01 T03230155  RH  036%=      5-min Rain = 0
KWE2 141907Z 09014KT 32/16 A3017 RMK A01 T03230156  RH  036%=      5-min Rain = 0
KWE2 141908Z 09013KT 33/16 A3017 RMK A01 T03250157  RH  036%=      5-min Rain = 0
KWE2 141909Z 09014KT 33/16 A3017 RMK A01 T03270157  RH  036%=      5-min Rain = 0
KWE2 141910Z 09014KT 33/15 A3017 RMK A01 T03270150  RH  034%=      5-min Rain = 0
KWE2 141911Z 08010KT 33/15 A3017 RMK A01 T03250152  RH  035%=      5-min Rain = 0
KWE2 141912Z 08010KT 33/15 A3017 RMK A01 T03260150  RH  035%=      5-min Rain = 0
KWE2 141913Z 07009KT 33/15 A3017 RMK A01 T03260152  RH  035%=      5-min Rain = 0
KWE2 141914Z 07010KT 33/16 A3017 RMK A01 T03280155  RH  035%=      5-min Rain = 0
KWE2 141915Z 09009KT 33/15 A3017 RMK A01 T03270153  RH  035%=      5-min Rain = 0
KWE2 141916Z 09013KT 33/15 A3017 RMK A01 T03260154  RH  036%=      5-min Rain = 0
KWE2 141917Z 09011G16KT 33/16 A3017 RMK A01 T03280156  RH  036%=      5-min Rain = 0
KWE2 141918Z 08012KT 33/15 A3017 RMK A01 T03310151  RH  034%=      5-min Rain = 0
KWE2 141919Z 08009KT 33/15 A3017 RMK A01 T03270146  RH  034%=      5-min Rain = 0
KWE2 141920Z 09009KT 32/15 A3017 RMK A01 T03230146  RH  034%=      5-min Rain = 0
KWE2 141921Z 10006KT 32/15 A3017 RMK A01 T03240151  RH  035%=      5-min Rain = 0
KWE2 141922Z 08008G13KT 33/15 A3017 RMK A01 T03270150  RH  034%=      5-min Rain = 0
KWE2 141923Z 08008G13KT 33/15 A3017 RMK A01 T03280151  RH  034%=      5-min Rain = 0
KWE2 141924Z 07011KT 33/15 A3017 RMK A01 T03300148  RH  033%=      5-min Rain = 0
KWE2 141925Z 07014KT 33/14 A3017 RMK A01 T03290142  RH  032%=      5-min Rain = 0
KWE2 141926Z 09012KT 33/14 A3017 RMK A01 T03290141  RH  032%=      5-min Rain = 0
KWE2 141927Z 10012KT 33/15 A3017 RMK A01 T03290147  RH  033%=      5-min Rain = 0
KWE2 141928Z 09012KT 33/15 A3017 RMK A01 T03320149  RH  033%=      5-min Rain = 0
KWE2 141929Z 08009KT 33/15 A3017 RMK A01 T03310147  RH  033%=      5-min Rain = 0
KWE2 141930Z 09009KT 33/15 A3016 RMK A01 T03300149  RH  034%=      5-min Rain = 0
KWE2 141931Z 08008KT 33/15 A3016 RMK A01 T03300148  RH  033%=      5-min Rain = 0
KWE2 141932Z 11008KT 33/15 A3016 RMK A01 T03300152  RH  034%=      5-min Rain = 0
KWE2 141933Z 10009KT 33/15 A3016 RMK A01 T03300149  RH  034%=      5-min Rain = 0
KWE2 141934Z 09009G14KT 33/15 A3016 RMK A01 T03290151  RH  034%=      5-min Rain = 0
KWE2 141935Z 09013KT 33/15 A3016 RMK A01 T03320145  RH  032%=      5-min Rain = 0
KWE2 141936Z 08012KT 33/14 A3016 RMK A01 T03330143  RH  032%=      5-min Rain = 0
KWE2 141937Z 09012KT 33/14 A3016 RMK A01 T03330141  RH  032%=      5-min Rain = 0
KWE2 141938Z 08011KT 33/14 A3016 RMK A01 T03340140  RH  031%=      5-min Rain = 0
KWE2 141939Z 07008KT 33/14 A3016 RMK A01 T03340138  RH  031%=      5-min Rain = 0
KWE2 141940Z 08008KT 33/14 A3016 RMK A01 T03320139  RH  031%=      5-min Rain = 0
KWE2 141941Z 07009G15KT 33/14 A3016 RMK A01 T03330144  RH  032%=      5-min Rain = 0
KWE2 141942Z 08011G16KT 34/14 A3016 RMK A01 T03370144  RH  031%=      5-min Rain = 0
KWE2 141943Z 07010KT 34/14 A3016 RMK A01 T03370139  RH  030%=      5-min Rain = 0
KWE2 141944Z 07009KT 34/14 A3016 RMK A01 T03350139  RH  031%=      5-min Rain = 0
KWE2 141945Z 08008KT 33/14 A3016 RMK A01 T03310137  RH  031%=      5-min Rain = 0
KWE2 141946Z 07008KT 33/14 A3016 RMK A01 T03300137  RH  031%=      5-min Rain = 0
KWE2 141947Z 07008KT 33/14 A3016 RMK A01 T03310135  RH  031%=      5-min Rain = 0
KWE2 141948Z 08007KT 33/14 A3016 RMK A01 T03320140  RH  031%=      5-min Rain = 0
KWE2 141949Z 09010KT 34/14 A3015 RMK A01 T03360137  RH  030%=      5-min Rain = 0
KWE2 141950Z 07011KT 34/14 A3015 RMK A01 T03390141  RH  030%=      5-min Rain = 0
KWE2 141951Z 08013KT 34/14 A3016 RMK A01 T03420139  RH  029%=      5-min Rain = 0
KWE2 141952Z 07011KT 34/14 A3016 RMK A01 T03400136  RH  029%=      5-min Rain = 0
KWE2 141953Z 08009KT 34/14 A3016 RMK A01 T03370138  RH  030%=      5-min Rain = 0
KWE2 141954Z 10009KT 34/14 A3015 RMK A01 T03400136  RH  029%=      5-min Rain = 0
KWE2 141955Z 07008KT 34/14 A3015 RMK A01 T03380138  RH  030%=      5-min Rain = 0
KWE2 141956Z 04009KT 34/14 A3015 RMK A01 T03370138  RH  030%=      5-min Rain = 0
KWE2 141957Z 06008KT 34/14 A3015 RMK A01 T03380142  RH  031%=      5-min Rain = 0
KWE2 141958Z 05012KT 34/14 A3015 RMK A01 T03400140  RH  030%=      5-min Rain = 0
KWE2 141959Z 07011KT 34/14 A3015 RMK A01 T03390139  RH  030%=      5-min Rain = 0
KWE2 142000Z 08009KT 34/14 A3015 RMK A01 T03380136  RH  030%=      5-min Rain = 0
KWE2 142001Z 06005KT 34/14 A3015 RMK A01 T03400140  RH  030%=      5-min Rain = 0
KWE2 142002Z 06008KT 34/14 A3015 RMK A01 T03430137  RH  029%=      5-min Rain = 0
KWE2 142003Z 06012KT 34/13 A3015 RMK A01 T03440127  RH  027%=      5-min Rain = 0
KWE2 142004Z 06012KT 34/13 A3015 RMK A01 T03420125  RH  027%=      5-min Rain = 0
KWE2 142005Z 05009KT 34/12 A3015 RMK A01 T03410122  RH  027%=      5-min Rain = 0
KWE2 142006Z 05008KT 34/12 A3015 RMK A01 T03400123  RH  027%=      5-min Rain = 0
KWE2 142007Z 06009KT 34/12 A3014 RMK A01 T03380124  RH  027%=      5-min Rain = 0
KWE2 142008Z 06008KT 34/13 A3014 RMK A01 T03380131  RH  029%=      5-min Rain = 0
KWE2 142009Z 08011KT 34/13 A3014 RMK A01 T03430133  RH  028%=      5-min Rain = 0
KWE2 142010Z 07008KT 34/13 A3014 RMK A01 T03420132  RH  028%=      5-min Rain = 0
KWE2 142011Z 07008KT 34/14 A3014 RMK A01 T03430137  RH  029%=      5-min Rain = 0
KWE2 142012Z 06006KT 34/14 A3014 RMK A01 T03430135  RH  029%=      5-min Rain = 0
KWE2 142013Z 08010KT 34/13 A3014 RMK A01 T03410134  RH  029%=      5-min Rain = 0
KWE2 142014Z 09007KT 34/14 A3014 RMK A01 T03400136  RH  029%=      5-min Rain = 0
KWE2 142015Z 07010KT 34/14 A3014 RMK A01 T03440139  RH  029%=      5-min Rain = 0
KWE2 142016Z 06012KT 35/14 A3014 RMK A01 T03460137  RH  029%=      5-min Rain = 0
KWE2 142017Z 08008KT 35/14 A3014 RMK A01 T03460137  RH  028%=      5-min Rain = 0
KWE2 142018Z 07007KT 35/14 A3014 RMK A01 T03470135  RH  028%=      5-min Rain = 0
KWE2 142019Z 07007KT 35/13 A3014 RMK A01 T03470134  RH  028%=      5-min Rain = 0
KWE2 142020Z 07008G14KT 35/13 A3014 RMK A01 T03460134  RH  028%=      5-min Rain = 0
KWE2 142021Z 07014KT 35/14 A3013 RMK A01 T03470137  RH  028%=      5-min Rain = 0
KWE2 142022Z 08014G19KT 35/14 A3013 RMK A01 T03480135  RH  028%=      5-min Rain = 0
KWE2 142023Z 07014KT 35/13 A3013 RMK A01 T03460128  RH  027%=      5-min Rain = 0
KWE2 142024Z 07014KT 34/13 A3013 RMK A01 T03420129  RH  028%=      5-min Rain = 0
KWE2 142025Z 07009KT 34/13 A3013 RMK A01 T03410127  RH  027%=      5-min Rain = 0
KWE2 142026Z 07006KT 34/13 A3013 RMK A01 T03410128  RH  028%=      5-min Rain = 0
KWE2 142027Z 05006KT 34/13 A3013 RMK A01 T03410130  RH  028%=      5-min Rain = 0
KWE2 142028Z 06008KT 34/13 A3013 RMK A01 T03440134  RH  028%=      5-min Rain = 0
KWE2 142029Z 05008KT 35/13 A3013 RMK A01 T03470134  RH  028%=      5-min Rain = 0
KWE2 142030Z 05014KT 35/13 A3013 RMK A01 T03490128  RH  026%=      5-min Rain = 0
KWE2 142031Z 06013G18KT 35/12 A3013 RMK A01 T03480124  RH  026%=      5-min Rain = 0
KWE2 142032Z 06012KT 35/12 A3013 RMK A01 T03470121  RH  026%=      5-min Rain = 0
KWE2 142033Z 06010KT 35/12 A3013 RMK A01 T03450124  RH  026%=      5-min Rain = 0
KWE2 142034Z 05007KT 35/13 A3013 RMK A01 T03480128  RH  027%=      5-min Rain = 0
KWE2 142035Z 06011KT 35/13 A3013 RMK A01 T03500130  RH  027%=      5-min Rain = 0
KWE2 142036Z 08012KT 35/13 A3013 RMK A01 T03470131  RH  027%=      5-min Rain = 0
KWE2 142037Z 08012KT 35/13 A3012 RMK A01 T03450127  RH  027%=      5-min Rain = 0
KWE2 142038Z 08009KT 34/13 A3012 RMK A01 T03410128  RH  028%=      5-min Rain = 0
KWE2 142039Z 07008KT 34/13 A3012 RMK A01 T03430132  RH  028%=      5-min Rain = 0
KWE2 142040Z 08010KT 35/13 A3012 RMK A01 T03460133  RH  028%=      5-min Rain = 0
KWE2 142041Z 08009KT 35/13 A3012 RMK A01 T03470130  RH  027%=      5-min Rain = 0
KWE2 142042Z 07013G18KT 35/13 A3012 RMK A01 T03460129  RH  027%=      5-min Rain = 0
KWE2 142043Z 07010KT 35/13 A3012 RMK A01 T03490129  RH  026%=      5-min Rain = 0
KWE2 142044Z 07009KT 35/13 A3012 RMK A01 T03500125  RH  026%=      5-min Rain = 0
KWE2 142045Z 06008KT 35/13 A3012 RMK A01 T03500132  RH  027%=      5-min Rain = 0
KWE2 142046Z 07011KT 35/13 A3012 RMK A01 T03510130  RH  026%=      5-min Rain = 0
KWE2 142047Z 07008KT 35/13 A3012 RMK A01 T03490127  RH  026%=      5-min Rain = 0
KWE2 142048Z 08009KT 35/13 A3012 RMK A01 T03480127  RH  026%=      5-min Rain = 0
KWE2 142049Z 08008KT 35/13 A3012 RMK A01 T03470126  RH  026%=      5-min Rain = 0
KWE2 142050Z 08008KT 35/13 A3012 RMK A01 T03460126  RH  027%=      5-min Rain = 0
KWE2 142051Z 08008KT 35/13 A3012 RMK A01 T03460127  RH  027%=      5-min Rain = 0
KWE2 142052Z 09007KT 35/13 A3012 RMK A01 T03480127  RH  026%=      5-min Rain = 0
KWE2 142053Z 09010KT 35/13 A3012 RMK A01 T03510129  RH  026%=      5-min Rain = 0
KWE2 142054Z 09009KT 35/13 A3012 RMK A01 T03520126  RH  025%=      5-min Rain = 0
KWE2 142055Z 10010KT 35/13 A3012 RMK A01 T03510128  RH  026%=      5-min Rain = 0
KWE2 142056Z 06008G14KT 35/13 A3012 RMK A01 T03510126  RH  026%=      5-min Rain = 0
KWE2 142057Z 06009KT 35/12 A3011 RMK A01 T03520124  RH  025%=      5-min Rain = 0
KWE2 142058Z 05011KT 36/12 A3011 RMK A01 T03550119  RH  024%=      5-min Rain = 0
KWE2 142059Z 06010KT 35/12 A3012 RMK A01 T03530115  RH  024%=      5-min Rain = 0
KWE2 142100Z 06008KT 35/12 A3012 RMK A01 T03500120  RH  025%=      5-min Rain = 0
KWE2 142101Z 06016KT 35/12 A3011 RMK A01 T03500122  RH  025%=      5-min Rain = 0
KWE2 142102Z 07014KT 35/12 A3011 RMK A01 T03500122  RH  025%=      5-min Rain = 0
KWE2 142103Z 07012G18KT 35/12 A3011 RMK A01 T03480120  RH  025%=      5-min Rain = 0
KWE2 142104Z 07011KT 35/12 A3011 RMK A01 T03470123  RH  026%=      5-min Rain = 0
KWE2 142105Z 06010KT 35/12 A3011 RMK A01 T03470122  RH  026%=      5-min Rain = 0
KWE2 142106Z 06010KT 35/12 A3011 RMK A01 T03460123  RH  026%=      5-min Rain = 0
KWE2 142107Z 05008KT 35/12 A3011 RMK A01 T03460120  RH  026%=      5-min Rain = 0
KWE2 142108Z 07006KT 35/12 A3011 RMK A01 T03450124  RH  026%=      5-min Rain = 0
KWE2 142109Z 06005KT 35/13 A3011 RMK A01 T03480126  RH  026%=      5-min Rain = 0
KWE2 142110Z 06006KT 35/13 A3011 RMK A01 T03500127  RH  026%=      5-min Rain = 0
KWE2 142111Z 09009KT 35/12 A3011 RMK A01 T03520123  RH  025%=      5-min Rain = 0
KWE2 142112Z 09007KT 35/12 A3011 RMK A01 T03490120  RH  025%=      5-min Rain = 0
KWE2 142113Z 08006G11KT 35/13 A3011 RMK A01 T03480125  RH  026%=      5-min Rain = 0
KWE2 142114Z 07008KT 35/12 A3011 RMK A01 T03500124  RH  026%=      5-min Rain = 0
KWE2 142115Z 08010KT 35/12 A3011 RMK A01 T03500118  RH  025%=      5-min Rain = 0
KWE2 142116Z 09011G16KT 35/12 A3011 RMK A01 T03480120  RH  025%=      5-min Rain = 0
KWE2 142117Z 08012G18KT 35/12 A3011 RMK A01 T03480124  RH  026%=      5-min Rain = 0
KWE2 142118Z 06009KT 35/13 A3011 RMK A01 T03520130  RH  026%=      5-min Rain = 0
KWE2 142119Z 06011KT 35/13 A3011 RMK A01 T03540126  RH  025%=      5-min Rain = 0
KWE2 142120Z 06013KT 35/12 A3011 RMK A01 T03520124  RH  025%=      5-min Rain = 0
KWE2 142121Z 07009KT 35/12 A3011 RMK A01 T03510124  RH  025%=      5-min Rain = 0
KWE2 142122Z 06010KT 35/12 A3011 RMK A01 T03510123  RH  025%=      5-min Rain = 0
KWE2 142123Z 08007KT 35/12 A3011 RMK A01 T03490116  RH  024%=      5-min Rain = 0
KWE2 142124Z 07004KT 35/12 A3011 RMK A01 T03450119  RH  025%=      5-min Rain = 0
KWE2 142125Z 09007KT 35/12 A3011 RMK A01 T03450119  RH  025%=      5-min Rain = 0
KWE2 142126Z 08011KT 35/13 A301 RMK A01 T03470125  RH  026%=      5-min Rain = 0
KWE2 142127Z 08010KT 35/12 A301 RMK A01 T03500121  RH  025%=      5-min Rain = 0
KWE2 142128Z 09012KT 35/12 A301 RMK A01 T03490119  RH  025%=      5-min Rain = 0
KWE2 142129Z 09010KT 35/12 A301 RMK A01 T03480121  RH  025%=      5-min Rain = 0
KWE2 142130Z 10008KT 35/13 A3011 RMK A01 T03490125  RH  026%=      5-min Rain = 0
KWE2 142131Z 10011KT 35/12 A3011 RMK A01 T03510122  RH  025%=      5-min Rain = 0
KWE2 142132Z 09008KT 35/12 A3011 RMK A01 T03510124  RH  025%=      5-min Rain = 0
KWE2 142133Z 09008KT 35/12 A3011 RMK A01 T03510122  RH  025%=      5-min Rain = 0
KWE2 142134Z 08006KT 35/12 A3011 RMK A01 T03500121  RH  025%=      5-min Rain = 0
KWE2 142135Z 10007KT 35/12 A301 RMK A01 T03500122  RH  025%=      5-min Rain = 0
KWE2 142136Z 07010G15KT 35/13 A301 RMK A01 T03530128  RH  026%=      5-min Rain = 0
KWE2 142137Z 07012KT 36/12 A301 RMK A01 T03560121  RH  024%=      5-min Rain = 0
KWE2 142138Z 07010KT 35/12 A301 RMK A01 T03520121  RH  025%=      5-min Rain = 0
KWE2 142139Z 07012KT 35/12 A301 RMK A01 T03520123  RH  025%=      5-min Rain = 0
KWE2 142140Z 06010KT 35/12 A301 RMK A01 T03500118  RH  025%=      5-min Rain = 0
KWE2 142141Z 05009KT 35/12 A301 RMK A01 T03480121  RH  025%=      5-min Rain = 0
KWE2 142142Z 04008KT 35/12 A301 RMK A01 T03470121  RH  025%=      5-min Rain = 0
KWE2 142143Z 05007KT 35/12 A301 RMK A01 T03480119  RH  025%=      5-min Rain = 0
KWE2 142144Z 04007KT 35/12 A301 RMK A01 T03470121  RH  025%=      5-min Rain = 0
KWE2 142145Z 06010KT 35/13 A301 RMK A01 T03490126  RH  026%=      5-min Rain = 0
KWE2 142146Z 06010KT 35/13 A301 RMK A01 T03510125  RH  026%=      5-min Rain = 0
KWE2 142147Z 06010KT 35/13 A301 RMK A01 T03510127  RH  026%=      5-min Rain = 0
KWE2 142148Z 06010KT 35/13 A301 RMK A01 T03510128  RH  026%=      5-min Rain = 0
KWE2 142149Z 07008G13KT 35/13 A301 RMK A01 T03520129  RH  026%=      5-min Rain = 0
KWE2 142150Z 10012KT 35/13 A301 RMK A01 T03530127  RH  026%=      5-min Rain = 0
KWE2 142151Z 09011G16KT 35/13 A301 RMK A01 T03510125  RH  026%=      5-min Rain = 0
KWE2 142152Z 09012KT 35/13 A301 RMK A01 T03500127  RH  026%=      5-min Rain = 0
KWE2 142153Z 09013KT 35/12 A301 RMK A01 T03510122  RH  025%=      5-min Rain = 0
KWE2 142154Z 09010KT 35/12 A301 RMK A01 T03500119  RH  025%=      5-min Rain = 0
KWE2 142155Z 09009KT 35/12 A301 RMK A01 T03480119  RH  025%=      5-min Rain = 0
KWE2 142156Z 10010KT 35/12 A301 RMK A01 T03480123  RH  026%=      5-min Rain = 0
KWE2 142157Z 10012KT 35/12 A301 RMK A01 T03500122  RH  025%=      5-min Rain = 0
KWE2 142158Z 09010KT 35/12 A301 RMK A01 T03490120  RH  025%=      5-min Rain = 0
KWE2 142159Z 09009KT 35/12 A301 RMK A01 T03480119  RH  025%=      5-min Rain = 0
KWE2 142200Z 08007KT 35/12 A301 RMK A01 T03480119  RH  025%=      5-min Rain = 0
KWE2 142201Z 09007KT 35/12 A301 RMK A01 T03480123  RH  026%=      5-min Rain = 0
KWE2 142202Z 09008KT 35/12 A301 RMK A01 T03500121  RH  025%=      5-min Rain = 0
KWE2 142203Z 07005KT 35/12 A3009 RMK A01 T03510122  RH  025%=      5-min Rain = 0
KWE2 142204Z 09007KT 35/12 A3009 RMK A01 T03500121  RH  025%=      5-min Rain = 0
KWE2 142205Z 12007KT 35/12 A3009 RMK A01 T03500121  RH  025%=      5-min Rain = 0
KWE2 142206Z 12008KT 35/12 A3009 RMK A01 T03510120  RH  025%=      5-min Rain = 0
KWE2 142207Z 11009KT 35/12 A3009 RMK A01 T03510124  RH  025%=      5-min Rain = 0
KWE2 142208Z 11008KT 35/12 A3009 RMK A01 T03510120  RH  025%=      5-min Rain = 0
KWE2 142209Z 12008KT 35/12 A3009 RMK A01 T03490120  RH  025%=      5-min Rain = 0
KWE2 142210Z 11009KT 35/12 A3009 RMK A01 T03490122  RH  025%=      5-min Rain = 0
KWE2 142211Z 10009KT 35/12 A3009 RMK A01 T03510124  RH  026%=      5-min Rain = 0
KWE2 142212Z 10009KT 35/12 A3009 RMK A01 T03520124  RH  025%=      5-min Rain = 0
KWE2 142213Z 09008KT 35/12 A3009 RMK A01 T03520122  RH  025%=      5-min Rain = 0
KWE2 142214Z 07007KT 35/12 A3009 RMK A01 T03510121  RH  025%=      5-min Rain = 0
KWE2 142215Z 09009KT 35/12 A3009 RMK A01 T03510122  RH  025%=      5-min Rain = 0
KWE2 142216Z 11011KT 35/12 A3009 RMK A01 T03510124  RH  026%=      5-min Rain = 0
KWE2 142217Z 11010KT 35/12 A3009 RMK A01 T03510121  RH  025%=      5-min Rain = 0
KWE2 142218Z 11010KT 35/12 A3009 RMK A01 T03520123  RH  025%=      5-min Rain = 0
KWE2 142219Z 10009KT 35/12 A3009 RMK A01 T03530124  RH  025%=      5-min Rain = 0
KWE2 142220Z 08010KT 35/12 A3009 RMK A01 T03530121  RH  025%=      5-min Rain = 0
KWE2 142221Z 08009KT 35/12 A3009 RMK A01 T03520118  RH  024%=      5-min Rain = 0
KWE2 142222Z 09008KT 35/12 A3009 RMK A01 T03500117  RH  024%=      5-min Rain = 0
KWE2 142223Z 09009KT 35/12 A3009 RMK A01 T03480119  RH  025%=      5-min Rain = 0
KWE2 142224Z 08008KT 35/12 A3009 RMK A01 T03490122  RH  025%=      5-min Rain = 0
KWE2 142225Z 07010KT 35/12 A3009 RMK A01 T03510117  RH  024%=      5-min Rain = 0
KWE2 142226Z 07009KT 35/12 A3009 RMK A01 T03490116  RH  024%=      5-min Rain = 0
KWE2 142227Z 06007KT 35/12 A3009 RMK A01 T03480117  RH  025%=      5-min Rain = 0
KWE2 142228Z 09007KT 35/12 A3009 RMK A01 T03480122  RH  026%=      5-min Rain = 0
KWE2 142229Z 09008KT 35/12 A3009 RMK A01 T03510119  RH  025%=      5-min Rain = 0
KWE2 142230Z 09010KT 35/12 A3009 RMK A01 T03500119  RH  025%=      5-min Rain = 0
KWE2 142231Z 10013KT 35/12 A3009 RMK A01 T03510121  RH  025%=      5-min Rain = 0
KWE2 142232Z 09011KT 35/12 A3009 RMK A01 T03510121  RH  025%=      5-min Rain = 0
KWE2 142233Z 09010KT 35/12 A3009 RMK A01 T03490119  RH  025%=      5-min Rain = 0
KWE2 142234Z 10009KT 35/12 A3009 RMK A01 T03480121  RH  025%=      5-min Rain = 0
KWE2 142235Z 10008KT 35/12 A3009 RMK A01 T03470122  RH  026%=      5-min Rain = 0
KWE2 142236Z 09005KT 35/12 A3009 RMK A01 T03470124  RH  026%=      5-min Rain = 0
KWE2 142237Z 11008KT 35/13 A3009 RMK A01 T03510128  RH  026%=      5-min Rain = 0
KWE2 142238Z 11010KT 35/12 A3008 RMK A01 T03530123  RH  025%=      5-min Rain = 0
KWE2 142239Z 09010KT 35/12 A3009 RMK A01 T03510122  RH  025%=      5-min Rain = 0
KWE2 142240Z 08009KT 35/12 A3009 RMK A01 T03500120  RH  025%=      5-min Rain = 0
KWE2 142241Z 09007G12KT 35/12 A3009 RMK A01 T03500122  RH  025%=      5-min Rain = 0
KWE2 142242Z 12010KT 35/12 A3009 RMK A01 T03500119  RH  025%=      5-min Rain = 0
KWE2 142243Z 11012KT 35/12 A3008 RMK A01 T03510119  RH  025%=      5-min Rain = 0
KWE2 142244Z 10010KT 35/12 A3009 RMK A01 T03510118  RH  024%=      5-min Rain = 0
KWE2 142245Z 09007KT 35/12 A3009 RMK A01 T03490118  RH  025%=      5-min Rain = 0
KWE2 142246Z 10009KT 35/12 A3008 RMK A01 T03490121  RH  025%=      5-min Rain = 0
KWE2 142247Z 12009KT 35/12 A3008 RMK A01 T03490120  RH  025%=      5-min Rain = 0
KWE2 142248Z 12010KT 35/12 A3008 RMK A01 T03500121  RH  025%=      5-min Rain = 0
KWE2 142249Z 10010KT 35/12 A3008 RMK A01 T03500120  RH  025%=      5-min Rain = 0
KWE2 142250Z 10010KT 35/12 A3008 RMK A01 T03510123  RH  025%=      5-min Rain = 0
KWE2 142251Z 07008KT 35/12 A3008 RMK A01 T03510123  RH  025%=      5-min Rain = 0
KWE2 142252Z 06011KT 35/12 A3008 RMK A01 T03520119  RH  025%=      5-min Rain = 0
KWE2 142253Z 06009KT 35/12 A3008 RMK A01 T03490116  RH  024%=      5-min Rain = 0
KWE2 142254Z 06006KT 35/12 A3008 RMK A01 T03470117  RH  025%=      5-min Rain = 0
KWE2 142255Z 07008KT 35/12 A3008 RMK A01 T03480118  RH  025%=      5-min Rain = 0
KWE2 142256Z 07009KT 35/12 A3008 RMK A01 T03490120  RH  025%=      5-min Rain = 0
KWE2 142257Z 08008KT 35/12 A3008 RMK A01 T03500117  RH  024%=      5-min Rain = 0
KWE2 142258Z 09007KT 35/12 A3008 RMK A01 T03500117  RH  024%=      5-min Rain = 0
KWE2 142259Z 08006KT 35/12 A3008 RMK A01 T03510119  RH  025%=      5-min Rain = 0
KWE2 142300Z 09005KT 35/12 A3008 RMK A01 T03520118  RH  024%=      5-min Rain = 0
KWE2 142301Z 08006KT 35/12 A3008 RMK A01 T03520117  RH  024%=      5-min Rain = 0
KWE2 142302Z 10011KT 35/12 A3008 RMK A01 T03510122  RH  025%=      5-min Rain = 0
KWE2 142303Z 09010KT 35/12 A3008 RMK A01 T03500118  RH  025%=      5-min Rain = 0
KWE2 142304Z 10010KT 35/12 A3008 RMK A01 T03500119  RH  025%=      5-min Rain = 0
KWE2 142305Z 11008KT 35/12 A3008 RMK A01 T03490116  RH  024%=      5-min Rain = 0
KWE2 142306Z 11009KT 35/11 A3008 RMK A01 T03480113  RH  024%=      5-min Rain = 0
KWE2 142307Z 10007KT 35/11 A3008 RMK A01 T03470114  RH  024%=      5-min Rain = 0
KWE2 142308Z 09007KT 35/12 A3008 RMK A01 T03470116  RH  025%=      5-min Rain = 0
KWE2 142309Z 10007KT 35/11 A3008 RMK A01 T03470114  RH  024%=      5-min Rain = 0
KWE2 142310Z 10007KT 35/12 A3008 RMK A01 T03470116  RH  025%=      5-min Rain = 0
KWE2 142311Z 10009KT 35/12 A3008 RMK A01 T03470121  RH  025%=      5-min Rain = 0
KWE2 142312Z 10008KT 35/12 A3008 RMK A01 T03480124  RH  026%=      5-min Rain = 0
KWE2 142313Z 08007KT 35/13 A3008 RMK A01 T03500125  RH  026%=      5-min Rain = 0
KWE2 142314Z 06007KT 35/13 A3008 RMK A01 T03510125  RH  026%=      5-min Rain = 0
KWE2 142315Z 06007KT 35/13 A3008 RMK A01 T03510125  RH  026%=      5-min Rain = 0
KWE2 142316Z 06011KT 35/13 A3008 RMK A01 T03510128  RH  026%=      5-min Rain = 0
KWE2 142317Z 08008KT 35/12 A3008 RMK A01 T03500122  RH  025%=      5-min Rain = 0
KWE2 142318Z 08007KT 35/12 A3008 RMK A01 T03490118  RH  025%=      5-min Rain = 0
KWE2 142319Z 08006KT 35/12 A3008 RMK A01 T03490119  RH  025%=      5-min Rain = 0
KWE2 142320Z 10007KT 35/12 A3008 RMK A01 T03480120  RH  025%=      5-min Rain = 0
KWE2 142321Z 11007KT 35/13 A3008 RMK A01 T03490128  RH  026%=      5-min Rain = 0
KWE2 142322Z 11008KT 35/12 A3008 RMK A01 T03510124  RH  026%=      5-min Rain = 0
KWE2 142323Z 11010KT 35/12 A3008 RMK A01 T03500124  RH  026%=      5-min Rain = 0
KWE2 142324Z 09008KT 35/13 A3008 RMK A01 T03500125  RH  026%=      5-min Rain = 0
KWE2 142325Z 10010KT 35/12 A3008 RMK A01 T03490121  RH  025%=      5-min Rain = 0
KWE2 142326Z 10010KT 35/12 A3008 RMK A01 T03480121  RH  025%=      5-min Rain = 0
KWE2 142327Z 08009KT 35/12 A3008 RMK A01 T03480123  RH  026%=      5-min Rain = 0
KWE2 142328Z 08010KT 35/12 A3008 RMK A01 T03490119  RH  025%=      5-min Rain = 0
KWE2 142329Z 10008KT 35/12 A3008 RMK A01 T03490123  RH  026%=      5-min Rain = 0
KWE2 142330Z 09006KT 35/12 A3008 RMK A01 T03490121  RH  025%=      5-min Rain = 0
KWE2 142331Z 09007KT 35/12 A3008 RMK A01 T03490123  RH  026%=      5-min Rain = 0
KWE2 142332Z 09007KT 35/12 A3008 RMK A01 T03490123  RH  026%=      5-min Rain = 0
KWE2 142333Z 09007KT 35/12 A3008 RMK A01 T03490118  RH  025%=      5-min Rain = 0
KWE2 142334Z 09008KT 35/12 A3008 RMK A01 T03480121  RH  025%=      5-min Rain = 0
KWE2 142335Z 08011KT 35/12 A3008 RMK A01 T03470122  RH  026%=      5-min Rain = 0
KWE2 142336Z 07007KT 35/12 A3008 RMK A01 T03470115  RH  024%=      5-min Rain = 0
KWE2 142337Z 08008KT 35/12 A3008 RMK A01 T03460116  RH  025%=      5-min Rain = 0
KWE2 142338Z 10008KT 35/12 A3008 RMK A01 T03460120  RH  025%=      5-min Rain = 0
KWE2 142339Z 10008KT 35/12 A3008 RMK A01 T03460117  RH  025%=      5-min Rain = 0
KWE2 142340Z 09007KT 35/12 A3008 RMK A01 T03460121  RH  026%=      5-min Rain = 0
KWE2 142341Z 09008KT 35/12 A3007 RMK A01 T03460118  RH  025%=      5-min Rain = 0
KWE2 142342Z 10008KT 35/12 A3007 RMK A01 T03460116  RH  025%=      5-min Rain = 0
KWE2 142343Z 09007KT 35/12 A3007 RMK A01 T03460116  RH  025%=      5-min Rain = 0
KWE2 142344Z 10007KT 35/12 A3007 RMK A01 T03460115  RH  025%=      5-min Rain = 0
KWE2 142345Z 09008KT 35/12 A3007 RMK A01 T03460116  RH  025%=      5-min Rain = 0
KWE2 142346Z 09007KT 35/12 A3007 RMK A01 T03460117  RH  025%=      5-min Rain = 0
KWE2 142347Z 09006KT 35/12 A3007 RMK A01 T03450116  RH  025%=      5-min Rain = 0
KWE2 142348Z 09007KT 35/12 A3007 RMK A01 T03450119  RH  025%=      5-min Rain = 0
KWE2 142349Z 09006KT 35/12 A3007 RMK A01 T03450121  RH  026%=      5-min Rain = 0
KWE2 142350Z 11007KT 35/13 A3007 RMK A01 T03450125  RH  026%=      5-min Rain = 0
KWE2 142351Z 10009KT 35/13 A3007 RMK A01 T03450129  RH  027%=      5-min Rain = 0
KWE2 142352Z 10011KT 35/13 A3007 RMK A01 T03450128  RH  027%=      5-min Rain = 0
KWE2 142353Z 10009KT 35/13 A3007 RMK A01 T03450125  RH  027%=      5-min Rain = 0
KWE2 142354Z 10010KT 34/12 A3007 RMK A01 T03440123  RH  026%=      5-min Rain = 0
KWE2 142355Z 09010KT 34/12 A3007 RMK A01 T03430122  RH  026%=      5-min Rain = 0
KWE2 142356Z 09011KT 34/12 A3007 RMK A01 T03430118  RH  026%=      5-min Rain = 0
KWE2 142357Z 09009KT 34/12 A3007 RMK A01 T03430119  RH  026%=      5-min Rain = 0
KWE2 142358Z 08007KT 34/12 A3007 RMK A01 T03430119  RH  026%=      5-min Rain = 0
KWE2 142359Z 10008KT 34/12 A3007 RMK A01 T03430123  RH  026%=      5-min Rain = 0
KWE2 150000Z 10010KT 34/12 A3007 RMK A01 T03430123  RH  026%=      5-min Rain = 0
KWE2 150001Z 09008KT 34/12 A3007 RMK A01 T03440122  RH  026%=      5-min Rain = 0
KWE2 150002Z 09007KT 34/12 A3007 RMK A01 T03440121  RH  026%=      5-min Rain = 0
KWE2 150003Z 09009KT 34/12 A3007 RMK A01 T03430121  RH  026%=      5-min Rain = 0
KWE2 150004Z 08007KT 34/12 A3007 RMK A01 T03440121  RH  026%=      5-min Rain = 0
KWE2 150005Z 09007KT 34/12 A3007 RMK A01 T03440122  RH  026%=      5-min Rain = 0
KWE2 150006Z 09008KT 35/12 A3007 RMK A01 T03450119  RH  026%=      5-min Rain = 0
KWE2 150007Z 09008KT 34/12 A3007 RMK A01 T03440119  RH  026%=      5-min Rain = 0
KWE2 150008Z 09009KT 34/12 A3007 RMK A01 T03440122  RH  026%=      5-min Rain = 0
KWE2 150009Z 09009KT 34/12 A3007 RMK A01 T03430122  RH  026%=      5-min Rain = 0
KWE2 150010Z 09009KT 34/13 A3007 RMK A01 T03420125  RH  027%=      5-min Rain = 0
KWE2 150011Z 10008KT 34/13 A3007 RMK A01 T03420126  RH  027%=      5-min Rain = 0
KWE2 150012Z 09008KT 34/13 A3007 RMK A01 T03420131  RH  028%=      5-min Rain = 0
KWE2 150013Z 09008KT 34/13 A3007 RMK A01 T03420131  RH  028%=      5-min Rain = 0
KWE2 150014Z 10009KT 34/13 A3007 RMK A01 T03410132  RH  028%=      5-min Rain = 0
KWE2 150015Z 10010KT 34/13 A3008 RMK A01 T03410131  RH  028%=      5-min Rain = 0
KWE2 150016Z 10008KT 34/13 A3008 RMK A01 T03400130  RH  028%=      5-min Rain = 0
KWE2 150017Z 10007KT 34/13 A3008 RMK A01 T03400131  RH  028%=      5-min Rain = 0
KWE2 150018Z 10010KT 34/13 A3008 RMK A01 T03390129  RH  028%=      5-min Rain = 0
KWE2 150019Z 09010KT 34/13 A3008 RMK A01 T03390127  RH  028%=      5-min Rain = 0
KWE2 150020Z 09008KT 34/13 A3008 RMK A01 T03380125  RH  027%=      5-min Rain = 0
KWE2 150021Z 09006KT 34/13 A3008 RMK A01 T03380125  RH  027%=      5-min Rain = 0
KWE2 150022Z 09007KT 34/12 A3008 RMK A01 T03390124  RH  027%=      5-min Rain = 0
KWE2 150023Z 10008KT 34/12 A3008 RMK A01 T03400124  RH  027%=      5-min Rain = 0
KWE2 150024Z 09006KT 34/13 A3008 RMK A01 T03390128  RH  028%=      5-min Rain = 0
KWE2 150025Z 10009KT 34/13 A3008 RMK A01 T03390129  RH  028%=      5-min Rain = 0
KWE2 150026Z 09009KT 34/13 A3008 RMK A01 T03380129  RH  028%=      5-min Rain = 0
KWE2 150027Z 09007KT 34/13 A3008 RMK A01 T03380130  RH  029%=      5-min Rain = 0
KWE2 150028Z 09006KT 34/13 A3008 RMK A01 T03380129  RH  028%=      5-min Rain = 0
KWE2 150029Z 10007KT 34/13 A3008 RMK A01 T03380127  RH  028%=      5-min Rain = 0
KWE2 150030Z 09007KT 34/13 A3008 RMK A01 T03380129  RH  028%=      5-min Rain = 0
KWE2 150031Z 11007KT 34/13 A3008 RMK A01 T03380129  RH  028%=      5-min Rain = 0
KWE2 150032Z 10006KT 34/13 A3008 RMK A01 T03380130  RH  028%=      5-min Rain = 0
KWE2 150033Z 10008KT 34/13 A3008 RMK A01 T03370133  RH  029%=      5-min Rain = 0
KWE2 150034Z 10007KT 34/13 A3008 RMK A01 T03360132  RH  029%=      5-min Rain = 0
KWE2 150035Z 10006KT 34/13 A3008 RMK A01 T03350134  RH  030%=      5-min Rain = 0
KWE2 150036Z 10006KT 34/13 A3008 RMK A01 T03350132  RH  029%=      5-min Rain = 0
KWE2 150037Z 10006KT 33/13 A3008 RMK A01 T03340133  RH  030%=      5-min Rain = 0
KWE2 150038Z 09006KT 34/14 A3008 RMK A01 T03350135  RH  030%=      5-min Rain = 0
KWE2 150039Z 09007KT 33/14 A3008 RMK A01 T03340135  RH  030%=      5-min Rain = 0
KWE2 150040Z 09008KT 33/14 A3008 RMK A01 T03340137  RH  031%=      5-min Rain = 0
KWE2 150041Z 09008KT 33/14 A3008 RMK A01 T03340135  RH  030%=      5-min Rain = 0
KWE2 150042Z 09008KT 33/14 A3008 RMK A01 T03330136  RH  030%=      5-min Rain = 0
KWE2 150043Z 09008KT 33/14 A3008 RMK A01 T03330135  RH  030%=      5-min Rain = 0
KWE2 150044Z 09006KT 33/14 A3008 RMK A01 T03330135  RH  030%=      5-min Rain = 0
KWE2 150045Z 09009KT 33/14 A3008 RMK A01 T03330135  RH  030%=      5-min Rain = 0
KWE2 150046Z 09009KT 33/13 A3008 RMK A01 T03330134  RH  030%=      5-min Rain = 0
KWE2 150047Z 09009KT 33/13 A3008 RMK A01 T03320134  RH  030%=      5-min Rain = 0
KWE2 150048Z 09010KT 33/14 A3008 RMK A01 T03320136  RH  030%=      5-min Rain = 0
KWE2 150049Z 10008KT 33/14 A3008 RMK A01 T03320138  RH  031%=      5-min Rain = 0
KWE2 150050Z 09009KT 33/14 A3008 RMK A01 T03300137  RH  031%=      5-min Rain = 0
KWE2 150051Z 09008KT 33/14 A3008 RMK A01 T03300137  RH  031%=      5-min Rain = 0
KWE2 150052Z 09007KT 33/14 A3008 RMK A01 T03300138  RH  031%=      5-min Rain = 0
KWE2 150053Z 09008KT 33/14 A3008 RMK A01 T03300138  RH  031%=      5-min Rain = 0
KWE2 150054Z 09009KT 33/14 A3008 RMK A01 T03300137  RH  031%=      5-min Rain = 0
KWE2 150055Z 09009KT 33/14 A3008 RMK A01 T03300138  RH  031%=      5-min Rain = 0
KWE2 150056Z 08008KT 33/14 A3008 RMK A01 T03290139  RH  032%=      5-min Rain = 0
KWE2 150057Z 08007KT 33/14 A3009 RMK A01 T03290139  RH  032%=      5-min Rain = 0
KWE2 150058Z 09008KT 33/14 A3009 RMK A01 T03280138  RH  032%=      5-min Rain = 0
KWE2 150059Z 09007KT 33/14 A3009 RMK A01 T03280139  RH  032%=      5-min Rain = 0
KWE2 150100Z 08007KT 33/14 A3009 RMK A01 T03270139  RH  032%=      5-min Rain = 0
KWE2 150101Z 08007KT 33/14 A3009 RMK A01 T03260139  RH  032%=      5-min Rain = 0
KWE2 150102Z 08007KT 33/14 A3009 RMK A01 T03260139  RH  032%=      5-min Rain = 0
KWE2 150103Z 09008KT 33/14 A3009 RMK A01 T03260139  RH  032%=      5-min Rain = 0
KWE2 150104Z 09007KT 33/14 A3009 RMK A01 T03260138  RH  032%=      5-min Rain = 0
KWE2 150105Z 09007KT 33/14 A3009 RMK A01 T03260140  RH  032%=      5-min Rain = 0
KWE2 150106Z 09006KT 33/14 A3009 RMK A01 T03250139  RH  032%=      5-min Rain = 0
KWE2 150107Z 09007KT 33/14 A3009 RMK A01 T03250139  RH  032%=      5-min Rain = 0
KWE2 150108Z 09008KT 32/14 A3009 RMK A01 T03240139  RH  033%=      5-min Rain = 0
KWE2 150109Z 09008KT 32/14 A3009 RMK A01 T03240139  RH  033%=      5-min Rain = 0
KWE2 150110Z 09007KT 32/14 A3009 RMK A01 T03240138  RH  033%=      5-min Rain = 0
KWE2 150111Z 09007KT 32/14 A3009 RMK A01 T03230139  RH  033%=      5-min Rain = 0
KWE2 150112Z 09007KT 32/14 A3009 RMK A01 T03230138  RH  033%=      5-min Rain = 0
KWE2 150113Z 09007KT 32/14 A3009 RMK A01 T03220138  RH  033%=      5-min Rain = 0
KWE2 150114Z 09008KT 32/14 A3009 RMK A01 T03220138  RH  033%=      5-min Rain = 0
KWE2 150115Z 09007KT 32/14 A3009 RMK A01 T03220138  RH  033%=      5-min Rain = 0
KWE2 150116Z 09006KT 32/14 A3009 RMK A01 T03220140  RH  033%=      5-min Rain = 0
KWE2 150117Z 09007KT 32/14 A3009 RMK A01 T03210140  RH  033%=      5-min Rain = 0
KWE2 150118Z 09007KT 32/14 A3009 RMK A01 T03200141  RH  034%=      5-min Rain = 0
KWE2 150119Z 09006KT 32/14 A3009 RMK A01 T03180141  RH  034%=      5-min Rain = 0
KWE2 150120Z 09006KT 32/14 A3009 RMK A01 T03170141  RH  034%=      5-min Rain = 0
KWE2 150121Z 09006KT 32/14 A301 RMK A01 T03160142  RH  035%=      5-min Rain = 0
KWE2 150122Z 10006KT 32/14 A301 RMK A01 T03150142  RH  035%=      5-min Rain = 0
KWE2 150123Z 09006KT 31/14 A301 RMK A01 T03140143  RH  035%=      5-min Rain = 0
KWE2 150124Z 10006KT 31/14 A301 RMK A01 T03130144  RH  036%=      5-min Rain = 0
KWE2 150125Z 09006KT 31/14 A301 RMK A01 T03110144  RH  036%=      5-min Rain = 0
KWE2 150126Z 10006KT 31/14 A301 RMK A01 T03100144  RH  036%=      5-min Rain = 0
KWE2 150127Z 10006KT 31/14 A301 RMK A01 T03090144  RH  036%=      5-min Rain = 0
KWE2 150128Z 10007KT 31/14 A301 RMK A01 T03090143  RH  036%=      5-min Rain = 0
KWE2 150129Z 10007KT 31/14 A301 RMK A01 T03090144  RH  037%=      5-min Rain = 0
KWE2 150130Z 10006KT 31/14 A301 RMK A01 T03080143  RH  037%=      5-min Rain = 0
KWE2 150131Z 10006KT 31/14 A301 RMK A01 T03080144  RH  037%=      5-min Rain = 0
KWE2 150132Z 10006KT 31/14 A301 RMK A01 T03070144  RH  037%=      5-min Rain = 0
KWE2 150133Z 10007KT 31/14 A301 RMK A01 T03060144  RH  037%=      5-min Rain = 0
KWE2 150134Z 10007KT 31/14 A301 RMK A01 T03050143  RH  037%=      5-min Rain = 0
KWE2 150135Z 10006KT 31/14 A301 RMK A01 T03060144  RH  037%=      5-min Rain = 0
KWE2 150136Z 09006KT 31/14 A301 RMK A01 T03050144  RH  038%=      5-min Rain = 0
KWE2 150137Z 09006KT 30/14 A301 RMK A01 T03040144  RH  038%=      5-min Rain = 0
KWE2 150138Z 09006KT 30/14 A301 RMK A01 T03030144  RH  038%=      5-min Rain = 0
KWE2 150139Z 09007KT 30/14 A3011 RMK A01 T03030144  RH  038%=      5-min Rain = 0
KWE2 150140Z 09007KT 30/14 A3011 RMK A01 T03030143  RH  038%=      5-min Rain = 0
KWE2 150141Z 09007KT 30/14 A3011 RMK A01 T03040142  RH  037%=      5-min Rain = 0
KWE2 150142Z 09008KT 31/14 A3011 RMK A01 T03080142  RH  036%=      5-min Rain = 0
KWE2 150143Z 09007KT 31/14 A3011 RMK A01 T03090142  RH  036%=      5-min Rain = 0
KWE2 150144Z 09007KT 31/14 A3011 RMK A01 T03110142  RH  036%=      5-min Rain = 0
KWE2 150145Z 09008KT 31/14 A3011 RMK A01 T03110143  RH  036%=      5-min Rain = 0
KWE2 150146Z 09008KT 31/14 A3011 RMK A01 T03110142  RH  036%=      5-min Rain = 0
KWE2 150147Z 08008KT 31/14 A3011 RMK A01 T03110141  RH  036%=      5-min Rain = 0
KWE2 150148Z 09007KT 31/14 A3011 RMK A01 T03120142  RH  036%=      5-min Rain = 0
KWE2 150149Z 09006KT 31/14 A3011 RMK A01 T03120142  RH  036%=      5-min Rain = 0
KWE2 150150Z 09006KT 31/14 A3011 RMK A01 T03120143  RH  036%=      5-min Rain = 0
KWE2 150151Z 08006KT 31/14 A3011 RMK A01 T03100142  RH  036%=      5-min Rain = 0
KWE2 150152Z 08004KT 31/14 A3011 RMK A01 T03100142  RH  036%=      5-min Rain = 0
KWE2 150153Z 08004KT 31/14 A3011 RMK A01 T03100142  RH  036%=      5-min Rain = 0
KWE2 150154Z 09005KT 31/14 A3011 RMK A01 T03100142  RH  036%=      5-min Rain = 0
KWE2 150155Z 09005KT 31/14 A3011 RMK A01 T03090142  RH  036%=      5-min Rain = 0
KWE2 150156Z 09006KT 31/14 A3011 RMK A01 T03090142  RH  036%=      5-min Rain = 0
KWE2 150157Z 09005KT 31/14 A3011 RMK A01 T03090142  RH  036%=      5-min Rain = 0
KWE2 150158Z 09006KT 31/14 A3011 RMK A01 T03060143  RH  037%=      5-min Rain = 0
KWE2 150159Z 09006KT 30/14 A3011 RMK A01 T03040143  RH  037%=      5-min Rain = 0
KWE2 150200Z 09006KT 30/14 A3011 RMK A01 T03030143  RH  038%=      5-min Rain = 0
KWE2 150201Z 10006KT 30/14 A3011 RMK A01 T03020144  RH  038%=      5-min Rain = 0
KWE2 150202Z 10006KT 30/14 A3011 RMK A01 T03010143  RH  038%=      5-min Rain = 0
KWE2 150203Z 10005KT 30/14 A3011 RMK A01 T02990144  RH  039%=      5-min Rain = 0
KWE2 150204Z 10006KT 30/15 A3011 RMK A01 T02980145  RH  039%=      5-min Rain = 0
KWE2 150205Z 10006KT 30/15 A3011 RMK A01 T02960145  RH  040%=      5-min Rain = 0
KWE2 150206Z 10006KT 29/15 A3012 RMK A01 T02940145  RH  040%=      5-min Rain = 0
KWE2 150207Z 10006KT 29/15 A3012 RMK A01 T02930145  RH  041%=      5-min Rain = 0
KWE2 150208Z 10006KT 29/15 A3012 RMK A01 T02930146  RH  041%=      5-min Rain = 0
KWE2 150209Z 10006KT 29/15 A3012 RMK A01 T02920146  RH  041%=      5-min Rain = 0
KWE2 150210Z 10005KT 29/15 A3012 RMK A01 T02920147  RH  041%=      5-min Rain = 0
KWE2 150211Z 10005KT 29/15 A3012 RMK A01 T02910146  RH  041%=      5-min Rain = 0
KWE2 150212Z 10006KT 29/15 A3012 RMK A01 T02910146  RH  041%=      5-min Rain = 0
KWE2 150213Z 10006KT 29/15 A3012 RMK A01 T02900146  RH  041%=      5-min Rain = 0
KWE2 150214Z 11005KT 29/15 A3012 RMK A01 T02910146  RH  041%=      5-min Rain = 0
KWE2 150215Z 14005KT 29/15 A3012 RMK A01 T02900147  RH  041%=      5-min Rain = 0
KWE2 150216Z 14004KT 29/15 A3012 RMK A01 T02880149  RH  043%=      5-min Rain = 0
KWE2 150217Z 13004KT 29/15 A3012 RMK A01 T02850150  RH  044%=      5-min Rain = 0
KWE2 150218Z 13004KT 28/15 A3012 RMK A01 T02830149  RH  044%=      5-min Rain = 0
KWE2 150219Z 12005KT 28/15 A3012 RMK A01 T02820149  RH  044%=      5-min Rain = 0
KWE2 150220Z 12005KT 28/15 A3012 RMK A01 T02820148  RH  044%=      5-min Rain = 0
KWE2 150221Z 12004KT 28/15 A3012 RMK A01 T02820148  RH  044%=      5-min Rain = 0
KWE2 150222Z 12004KT 28/15 A3012 RMK A01 T02810148  RH  044%=      5-min Rain = 0
KWE2 150223Z 12004KT 28/15 A3013 RMK A01 T02810148  RH  044%=      5-min Rain = 0
KWE2 150224Z 12003KT 28/15 A3013 RMK A01 T02800148  RH  044%=      5-min Rain = 0
KWE2 150225Z 11003KT 28/15 A3013 RMK A01 T02790148  RH  045%=      5-min Rain = 0
KWE2 150226Z 11003KT 28/15 A3013 RMK A01 T02790148  RH  045%=      5-min Rain = 0
KWE2 150227Z 11003KT 28/15 A3013 RMK A01 T02780148  RH  045%=      5-min Rain = 0
KWE2 150228Z 11003KT 28/15 A3013 RMK A01 T02780147  RH  045%=      5-min Rain = 0
KWE2 150229Z 11004KT 28/15 A3013 RMK A01 T02770146  RH  045%=      5-min Rain = 0
KWE2 150230Z 12004KT 28/15 A3013 RMK A01 T02770147  RH  045%=      5-min Rain = 0
KWE2 150231Z 12004KT 28/15 A3013 RMK A01 T02780147  RH  045%=      5-min Rain = 0
KWE2 150232Z 12004KT 28/15 A3013 RMK A01 T02780147  RH  045%=      5-min Rain = 0
KWE2 150233Z 12004KT 28/15 A3013 RMK A01 T02780147  RH  045%=      5-min Rain = 0
KWE2 150234Z 12003KT 28/15 A3013 RMK A01 T02770147  RH  045%=      5-min Rain = 0
KWE2 150235Z 12004KT 28/15 A3013 RMK A01 T02770147  RH  045%=      5-min Rain = 0
KWE2 150236Z 13003KT 28/15 A3013 RMK A01 T02760147  RH  045%=      5-min Rain = 0
KWE2 150237Z 13003KT 28/15 A3013 RMK A01 T02750147  RH  045%=      5-min Rain = 0
KWE2 150238Z 13004KT 28/15 A3014 RMK A01 T02750147  RH  046%=      5-min Rain = 0
KWE2 150239Z 13005KT 27/15 A3014 RMK A01 T02740147  RH  046%=      5-min Rain = 0
KWE2 150240Z 13005KT 27/15 A3014 RMK A01 T02740148  RH  046%=      5-min Rain = 0
KWE2 150241Z 12005KT 27/15 A3014 RMK A01 T02730147  RH  046%=      5-min Rain = 0
KWE2 150242Z 12005KT 27/15 A3014 RMK A01 T02730147  RH  046%=      5-min Rain = 0
KWE2 150243Z 12005KT 27/15 A3014 RMK A01 T02730147  RH  046%=      5-min Rain = 0
KWE2 150244Z 12005KT 27/15 A3013 RMK A01 T02730148  RH  046%=      5-min Rain = 0
KWE2 150245Z 12005KT 27/15 A3013 RMK A01 T02720147  RH  046%=      5-min Rain = 0
KWE2 150246Z 12005KT 27/15 A3013 RMK A01 T02720148  RH  046%=      5-min Rain = 0
KWE2 150247Z 12004KT 27/15 A3014 RMK A01 T02720148  RH  047%=      5-min Rain = 0
KWE2 150248Z 12005KT 27/15 A3014 RMK A01 T02710148  RH  047%=      5-min Rain = 0
KWE2 150249Z 12005KT 27/15 A3014 RMK A01 T02700148  RH  047%=      5-min Rain = 0
KWE2 150250Z 12005KT 27/15 A3014 RMK A01 T02700148  RH  047%=      5-min Rain = 0
KWE2 150251Z 12006KT 27/15 A3014 RMK A01 T02700148  RH  047%=      5-min Rain = 0
KWE2 150252Z 12006KT 27/15 A3014 RMK A01 T02700149  RH  047%=      5-min Rain = 0
KWE2 150253Z 12006KT 27/15 A3014 RMK A01 T02690149  RH  048%=      5-min Rain = 0
KWE2 150254Z 12006KT 27/15 A3014 RMK A01 T02690149  RH  048%=      5-min Rain = 0
KWE2 150255Z 12005KT 27/15 A3014 RMK A01 T02690149  RH  048%=      5-min Rain = 0
KWE2 150256Z 12005KT 27/15 A3014 RMK A01 T02680149  RH  048%=      5-min Rain = 0
KWE2 150257Z 12005KT 27/15 A3014 RMK A01 T02680150  RH  048%=      5-min Rain = 0
KWE2 150258Z 12005KT 27/15 A3014 RMK A01 T02680150  RH  048%=      5-min Rain = 0
KWE2 150259Z 12005KT 27/15 A3014 RMK A01 T02680150  RH  049%=      5-min Rain = 0
KWE2 150300Z 12005KT 27/15 A3014 RMK A01 T02670150  RH  049%=      5-min Rain = 0
KWE2 150301Z 13005KT 27/15 A3014 RMK A01 T02660151  RH  049%=      5-min Rain = 0
KWE2 150302Z 13006KT 27/15 A3014 RMK A01 T02660151  RH  049%=      5-min Rain = 0
KWE2 150303Z 13006KT 27/15 A3014 RMK A01 T02660151  RH  049%=      5-min Rain = 0
KWE2 150304Z 13006KT 27/15 A3014 RMK A01 T02660152  RH  049%=      5-min Rain = 0
KWE2 150305Z 13006KT 27/15 A3014 RMK A01 T02660152  RH  049%=      5-min Rain = 0
KWE2 150306Z 13006KT 27/15 A3014 RMK A01 T02660152  RH  050%=      5-min Rain = 0
KWE2 150307Z 13006KT 27/15 A3014 RMK A01 T02660153  RH  050%=      5-min Rain = 0
KWE2 150308Z 13006KT 27/15 A3014 RMK A01 T02660153  RH  050%=      5-min Rain = 0
KWE2 150309Z 13007KT 27/15 A3014 RMK A01 T02670154  RH  050%=      5-min Rain = 0
KWE2 150310Z 13006KT 27/15 A3014 RMK A01 T02670154  RH  050%=      5-min Rain = 0
KWE2 150311Z 12006KT 27/16 A3014 RMK A01 T02670155  RH  050%=      5-min Rain = 0
KWE2 150312Z 12006KT 27/16 A3014 RMK A01 T02670155  RH  050%=      5-min Rain = 0
KWE2 150313Z 12006KT 27/16 A3014 RMK A01 T02680156  RH  050%=      5-min Rain = 0
KWE2 150314Z 12006KT 27/16 A3014 RMK A01 T02670156  RH  050%=      5-min Rain = 0
KWE2 150315Z 12006KT 27/16 A3014 RMK A01 T02670156  RH  050%=      5-min Rain = 0
KWE2 150316Z 12006KT 27/16 A3014 RMK A01 T02680157  RH  051%=      5-min Rain = 0
KWE2 150317Z 12006KT 27/16 A3014 RMK A01 T02670157  RH  051%=      5-min Rain = 0
KWE2 150318Z 12006KT 27/16 A3014 RMK A01 T02670157  RH  051%=      5-min Rain = 0
KWE2 150319Z 12006KT 27/16 A3014 RMK A01 T02680157  RH  051%=      5-min Rain = 0
KWE2 150320Z 12006KT 27/16 A3014 RMK A01 T02670157  RH  051%=      5-min Rain = 0
KWE2 150321Z 12005KT 27/16 A3014 RMK A01 T02670157  RH  051%=      5-min Rain = 0
KWE2 150322Z 12006KT 27/16 A3014 RMK A01 T02670158  RH  051%=      5-min Rain = 0
KWE2 150323Z 12005KT 27/16 A3014 RMK A01 T02670158  RH  051%=      5-min Rain = 0
KWE2 150324Z 12005KT 27/16 A3014 RMK A01 T02670158  RH  051%=      5-min Rain = 0
KWE2 150325Z 12005KT 27/16 A3015 RMK A01 T02660158  RH  051%=      5-min Rain = 0
KWE2 150326Z 12005KT 27/16 A3015 RMK A01 T02660159  RH  052%=      5-min Rain = 0
KWE2 150327Z 12005KT 27/16 A3015 RMK A01 T02650159  RH  052%=      5-min Rain = 0
KWE2 150328Z 12005KT 26/16 A3015 RMK A01 T02640160  RH  053%=      5-min Rain = 0
KWE2 150329Z 12005KT 26/16 A3015 RMK A01 T02640160  RH  053%=      5-min Rain = 0
KWE2 150330Z 12006KT 26/16 A3015 RMK A01 T02630161  RH  053%=      5-min Rain = 0
KWE2 150331Z 12006KT 26/16 A3015 RMK A01 T02630161  RH  053%=      5-min Rain = 0
KWE2 150332Z 12005KT 26/16 A3015 RMK A01 T02630161  RH  054%=      5-min Rain = 0
KWE2 150333Z 12005KT 26/16 A3015 RMK A01 T02620162  RH  054%=      5-min Rain = 0
KWE2 150334Z 12006KT 26/16 A3015 RMK A01 T02610162  RH  054%=      5-min Rain = 0
KWE2 150335Z 12006KT 26/16 A3015 RMK A01 T02610162  RH  054%=      5-min Rain = 0
KWE2 150336Z 12006KT 26/16 A3015 RMK A01 T02600162  RH  055%=      5-min Rain = 0
KWE2 150337Z 12006KT 26/16 A3015 RMK A01 T02600162  RH  055%=      5-min Rain = 0
KWE2 150338Z 11006KT 26/16 A3015 RMK A01 T02600163  RH  055%=      5-min Rain = 0
KWE2 150339Z 12006KT 26/16 A3015 RMK A01 T02590163  RH  055%=      5-min Rain = 0
KWE2 150340Z 11006KT 26/16 A3015 RMK A01 T02590163  RH  055%=      5-min Rain = 0
KWE2 150341Z 12007KT 26/16 A3015 RMK A01 T02580162  RH  055%=      5-min Rain = 0
KWE2 150342Z 12006KT 26/16 A3015 RMK A01 T02580162  RH  055%=      5-min Rain = 0
KWE2 150343Z 12007KT 26/16 A3015 RMK A01 T02580162  RH  055%=      5-min Rain = 0
KWE2 150344Z 12007KT 26/16 A3015 RMK A01 T02580162  RH  055%=      5-min Rain = 0
KWE2 150345Z 12006KT 26/16 A3015 RMK A01 T02580162  RH  055%=      5-min Rain = 0
KWE2 150346Z 12006KT 26/16 A3015 RMK A01 T02590162  RH  055%=      5-min Rain = 0
KWE2 150347Z 12006KT 26/16 A3015 RMK A01 T02600162  RH  055%=      5-min Rain = 0
KWE2 150348Z 12006KT 26/16 A3015 RMK A01 T02600162  RH  055%=      5-min Rain = 0
KWE2 150349Z 12006KT 26/16 A3015 RMK A01 T02600162  RH  055%=      5-min Rain = 0
KWE2 150350Z 12006KT 26/16 A3015 RMK A01 T02610162  RH  055%=      5-min Rain = 0
KWE2 150351Z 12006KT 26/16 A3015 RMK A01 T02600162  RH  054%=      5-min Rain = 0
KWE2 150352Z 12006KT 26/16 A3015 RMK A01 T02610162  RH  054%=      5-min Rain = 0
KWE2 150353Z 12006KT 26/16 A3015 RMK A01 T02610162  RH  054%=      5-min Rain = 0
KWE2 150354Z 12006KT 26/16 A3015 RMK A01 T02600162  RH  054%=      5-min Rain = 0
KWE2 150355Z 12006KT 26/16 A3015 RMK A01 T02610162  RH  054%=      5-min Rain = 0
KWE2 150356Z 11006KT 26/16 A3015 RMK A01 T02600162  RH  055%=      5-min Rain = 0
KWE2 150357Z 11006KT 26/16 A3015 RMK A01 T02610162  RH  055%=      5-min Rain = 0
KWE2 150358Z 11006KT 26/16 A3016 RMK A01 T02600162  RH  055%=      5-min Rain = 0
KWE2 150359Z 11005KT 26/16 A3016 RMK A01 T02600162  RH  055%=      5-min Rain = 0
KWE2 150400Z 12005KT 26/16 A3016 RMK A01 T02590162  RH  055%=      5-min Rain = 0
KWE2 150401Z 12005KT 26/16 A3016 RMK A01 T02590162  RH  055%=      5-min Rain = 0
KWE2 150402Z 12005KT 26/16 A3016 RMK A01 T02580162  RH  055%=      5-min Rain = 0
KWE2 150403Z 12005KT 26/16 A3016 RMK A01 T02570162  RH  056%=      5-min Rain = 0
KWE2 150404Z 11005KT 26/16 A3016 RMK A01 T02570163  RH  056%=      5-min Rain = 0
KWE2 150405Z 11005KT 26/16 A3015 RMK A01 T02560162  RH  056%=      5-min Rain = 0
KWE2 150406Z 11005KT 26/16 A3015 RMK A01 T02560163  RH  056%=      5-min Rain = 0
KWE2 150407Z 11005KT 26/16 A3016 RMK A01 T02560163  RH  056%=      5-min Rain = 0
KWE2 150408Z 11005KT 26/16 A3016 RMK A01 T02560163  RH  056%=      5-min Rain = 0
KWE2 150409Z 11005KT 26/16 A3016 RMK A01 T02550163  RH  057%=      5-min Rain = 0
KWE2 150410Z 11005KT 26/16 A3016 RMK A01 T02550163  RH  057%=      5-min Rain = 0
KWE2 150411Z 12005KT 25/16 A3016 RMK A01 T02540163  RH  057%=      5-min Rain = 0
KWE2 150412Z 12005KT 25/16 A3016 RMK A01 T02540163  RH  057%=      5-min Rain = 0
KWE2 150413Z 12005KT 25/16 A3016 RMK A01 T02530162  RH  057%=      5-min Rain = 0
KWE2 150414Z 12005KT 25/16 A3016 RMK A01 T02530162  RH  057%=      5-min Rain = 0
KWE2 150415Z 12005KT 25/16 A3016 RMK A01 T02520162  RH  057%=      5-min Rain = 0
KWE2 150416Z 12005KT 25/16 A3016 RMK A01 T02520162  RH  057%=      5-min Rain = 0
KWE2 150417Z 12005KT 25/16 A3016 RMK A01 T02520161  RH  057%=      5-min Rain = 0
KWE2 150418Z 12005KT 25/16 A3016 RMK A01 T02520162  RH  057%=      5-min Rain = 0
KWE2 150419Z 12006KT 25/16 A3016 RMK A01 T02510161  RH  057%=      5-min Rain = 0
KWE2 150420Z 12005KT 25/16 A3016 RMK A01 T02520162  RH  057%=      5-min Rain = 0
KWE2 150421Z 12005KT 25/16 A3016 RMK A01 T02510161  RH  057%=      5-min Rain = 0
KWE2 150422Z 12005KT 25/16 A3016 RMK A01 T02510161  RH  057%=      5-min Rain = 0
KWE2 150423Z 12005KT 25/16 A3016 RMK A01 T02520162  RH  057%=      5-min Rain = 0
KWE2 150424Z 11005KT 25/16 A3016 RMK A01 T02520162  RH  057%=      5-min Rain = 0
KWE2 150425Z 11005KT 25/16 A3016 RMK A01 T02520162  RH  058%=      5-min Rain = 0
KWE2 150426Z 11004KT 25/16 A3016 RMK A01 T02520162  RH  058%=      5-min Rain = 0
KWE2 150427Z 11005KT 25/16 A3016 RMK A01 T02510162  RH  058%=      5-min Rain = 0
KWE2 150428Z 11005KT 25/16 A3016 RMK A01 T02510162  RH  058%=      5-min Rain = 0
KWE2 150429Z 12005KT 25/16 A3016 RMK A01 T02510162  RH  058%=      5-min Rain = 0
KWE2 150430Z 12005KT 25/16 A3016 RMK A01 T02510162  RH  058%=      5-min Rain = 0
KWE2 150431Z 12005KT 25/16 A3016 RMK A01 T02500162  RH  058%=      5-min Rain = 0
KWE2 150432Z 12005KT 25/16 A3016 RMK A01 T02500163  RH  058%=      5-min Rain = 0
KWE2 150433Z 12006KT 25/16 A3016 RMK A01 T02500162  RH  058%=      5-min Rain = 0
KWE2 150434Z 13005KT 25/16 A3016 RMK A01 T02500162  RH  058%=      5-min Rain = 0
KWE2 150435Z 13006KT 25/16 A3016 RMK A01 T02500163  RH  058%=      5-min Rain = 0
KWE2 150436Z 13006KT 25/16 A3016 RMK A01 T02490163  RH  058%=      5-min Rain = 0
KWE2 150437Z 13006KT 25/16 A3016 RMK A01 T02490162  RH  058%=      5-min Rain = 0
KWE2 150438Z 13005KT 25/16 A3016 RMK A01 T02500162  RH  058%=      5-min Rain = 0
KWE2 150439Z 13005KT 25/16 A3016 RMK A01 T02500162  RH  058%=      5-min Rain = 0
KWE2 150440Z 13005KT 25/16 A3016 RMK A01 T02490161  RH  058%=      5-min Rain = 0
KWE2 150441Z 13005KT 25/16 A3016 RMK A01 T02490161  RH  058%=      5-min Rain = 0
KWE2 150442Z 13005KT 25/16 A3016 RMK A01 T02480161  RH  058%=      5-min Rain = 0
KWE2 150443Z 13006KT 25/16 A3016 RMK A01 T02470161  RH  058%=      5-min Rain = 0
KWE2 150444Z 13005KT 25/16 A3016 RMK A01 T02470161  RH  059%=      5-min Rain = 0
KWE2 150445Z 13005KT 25/16 A3016 RMK A01 T02460161  RH  059%=      5-min Rain = 0
KWE2 150446Z 13005KT 25/16 A3016 RMK A01 T02460160  RH  059%=      5-min Rain = 0
KWE2 150447Z 12005KT 25/16 A3016 RMK A01 T02450160  RH  059%=      5-min Rain = 0
KWE2 150448Z 12006KT 25/16 A3016 RMK A01 T02460160  RH  059%=      5-min Rain = 0
KWE2 150449Z 12005KT 25/16 A3016 RMK A01 T02460160  RH  059%=      5-min Rain = 0
KWE2 150450Z 12005KT 25/16 A3016 RMK A01 T02470161  RH  059%=      5-min Rain = 0
KWE2 150451Z 12005KT 25/16 A3016 RMK A01 T02470160  RH  059%=      5-min Rain = 0
KWE2 150452Z 12006KT 25/16 A3016 RMK A01 T02470161  RH  059%=      5-min Rain = 0
KWE2 150453Z 12006KT 25/16 A3016 RMK A01 T02470161  RH  059%=      5-min Rain = 0
KWE2 150454Z 12006KT 25/16 A3016 RMK A01 T02470161  RH  059%=      5-min Rain = 0
KWE2 150455Z 12006KT 25/16 A3016 RMK A01 T02470160  RH  059%=      5-min Rain = 0
KWE2 150456Z 12006KT 25/16 A3016 RMK A01 T02460160  RH  059%=      5-min Rain = 0
KWE2 150457Z 12006KT 25/16 A3016 RMK A01 T02460159  RH  058%=      5-min Rain = 0
KWE2 150458Z 12006KT 25/16 A3016 RMK A01 T02470159  RH  058%=      5-min Rain = 0
KWE2 150459Z 12006KT 25/16 A3016 RMK A01 T02470160  RH  058%=      5-min Rain = 0

Page generated in 0.1458 seconds.